<?xml version="1.0" encoding="UTF-8" standalone="no" ?>
<gpx xmlns="http://www.topografix.com/GPX/1/1" xmlns:xsi="http://www.w3.org/2001/XMLSchema-instance" xsi:schemaLocation="http://www.topografix.com/GPX/1/1 http://www.topografix.com/GPX/1/1/gpx.xsd" version="1.1" creator="VisuGPX - https://www.visugpx.com">
  <metadata>
    <name>Du monastère Ste Madeleine au col de la Chaine</name>
    <desc><![CDATA[Balade sur le GR de pays des dentelles entre le monastère Ste Madeleine et le col de la chaine]]></desc>
  </metadata>
  <trk>
    <name><![CDATA[2017-09-18 14:58:32]]></name>
    <trkseg>
      <trkpt lat="44.1533" lon="5.09852">
        <ele>401.97</ele>
        <time>2017-09-18T07:33:04Z</time>
      </trkpt>
      <trkpt lat="44.1533" lon="5.09852">
        <ele>401.97</ele>
        <time>2017-09-18T07:33:05Z</time>
      </trkpt>
      <trkpt lat="44.1533" lon="5.09852">
        <ele>380.34</ele>
        <time>2017-09-18T07:33:09Z</time>
      </trkpt>
      <trkpt lat="44.1533" lon="5.09852">
        <ele>380.34</ele>
        <time>2017-09-18T07:33:10Z</time>
      </trkpt>
      <trkpt lat="44.15331" lon="5.09853">
        <ele>380.34</ele>
        <time>2017-09-18T07:33:32Z</time>
      </trkpt>
      <trkpt lat="44.15333" lon="5.09856">
        <ele>380.34</ele>
        <time>2017-09-18T07:33:48Z</time>
      </trkpt>
      <trkpt lat="44.15333" lon="5.09857">
        <ele>372.65</ele>
        <time>2017-09-18T07:33:58Z</time>
      </trkpt>
      <trkpt lat="44.15333" lon="5.09857">
        <ele>382.74</ele>
        <time>2017-09-18T07:33:59Z</time>
      </trkpt>
      <trkpt lat="44.15334" lon="5.09857">
        <ele>379.38</ele>
        <time>2017-09-18T07:34:00Z</time>
      </trkpt>
      <trkpt lat="44.15336" lon="5.09859">
        <ele>380.82</ele>
        <time>2017-09-18T07:34:20Z</time>
      </trkpt>
      <trkpt lat="44.15335" lon="5.09861">
        <ele>380.82</ele>
        <time>2017-09-18T07:34:43Z</time>
      </trkpt>
      <trkpt lat="44.15333" lon="5.0986">
        <ele>379.38</ele>
        <time>2017-09-18T07:35:08Z</time>
      </trkpt>
      <trkpt lat="44.15332" lon="5.09861">
        <ele>378.9</ele>
        <time>2017-09-18T07:35:25Z</time>
      </trkpt>
      <trkpt lat="44.15333" lon="5.09862">
        <ele>380.82</ele>
        <time>2017-09-18T07:35:38Z</time>
      </trkpt>
      <trkpt lat="44.15333" lon="5.09862">
        <ele>379.38</ele>
        <time>2017-09-18T07:35:49Z</time>
      </trkpt>
      <trkpt lat="44.15334" lon="5.09862">
        <ele>379.38</ele>
        <time>2017-09-18T07:35:59Z</time>
      </trkpt>
      <trkpt lat="44.15337" lon="5.09863">
        <ele>381.3</ele>
        <time>2017-09-18T07:36:03Z</time>
      </trkpt>
      <trkpt lat="44.15342" lon="5.09863">
        <ele>379.86</ele>
        <time>2017-09-18T07:36:17Z</time>
      </trkpt>
      <trkpt lat="44.15351" lon="5.0987">
        <ele>379.86</ele>
        <time>2017-09-18T07:36:31Z</time>
      </trkpt>
      <trkpt lat="44.15363" lon="5.09875">
        <ele>378.9</ele>
        <time>2017-09-18T07:36:46Z</time>
      </trkpt>
      <trkpt lat="44.1537" lon="5.09878">
        <ele>378.42</ele>
        <time>2017-09-18T07:37:03Z</time>
      </trkpt>
      <trkpt lat="44.15374" lon="5.09877">
        <ele>378.42</ele>
        <time>2017-09-18T07:37:07Z</time>
      </trkpt>
      <trkpt lat="44.15385" lon="5.09874">
        <ele>377.94</ele>
        <time>2017-09-18T07:37:20Z</time>
      </trkpt>
      <trkpt lat="44.15387" lon="5.09874">
        <ele>379.86</ele>
        <time>2017-09-18T07:37:22Z</time>
      </trkpt>
      <trkpt lat="44.15394" lon="5.09881">
        <ele>376.97</ele>
        <time>2017-09-18T07:37:35Z</time>
      </trkpt>
      <trkpt lat="44.15406" lon="5.09888">
        <ele>376.01</ele>
        <time>2017-09-18T07:37:54Z</time>
      </trkpt>
      <trkpt lat="44.15415" lon="5.09895">
        <ele>375.05</ele>
        <time>2017-09-18T07:38:10Z</time>
      </trkpt>
      <trkpt lat="44.15425" lon="5.09896">
        <ele>374.57</ele>
        <time>2017-09-18T07:38:25Z</time>
      </trkpt>
      <trkpt lat="44.15442" lon="5.09897">
        <ele>371.69</ele>
        <time>2017-09-18T07:38:38Z</time>
      </trkpt>
      <trkpt lat="44.15444" lon="5.09896">
        <ele>375.53</ele>
        <time>2017-09-18T07:38:40Z</time>
      </trkpt>
      <trkpt lat="44.15456" lon="5.09887">
        <ele>373.61</ele>
        <time>2017-09-18T07:38:54Z</time>
      </trkpt>
      <trkpt lat="44.15463" lon="5.09874">
        <ele>372.65</ele>
        <time>2017-09-18T07:39:09Z</time>
      </trkpt>
      <trkpt lat="44.15478" lon="5.09877">
        <ele>371.69</ele>
        <time>2017-09-18T07:39:26Z</time>
      </trkpt>
      <trkpt lat="44.15492" lon="5.09886">
        <ele>370.73</ele>
        <time>2017-09-18T07:39:43Z</time>
      </trkpt>
      <trkpt lat="44.15501" lon="5.09897">
        <ele>369.76</ele>
        <time>2017-09-18T07:39:56Z</time>
      </trkpt>
      <trkpt lat="44.15513" lon="5.09918">
        <ele>367.36</ele>
        <time>2017-09-18T07:40:16Z</time>
      </trkpt>
      <trkpt lat="44.15524" lon="5.09941">
        <ele>366.4</ele>
        <time>2017-09-18T07:40:35Z</time>
      </trkpt>
      <trkpt lat="44.15538" lon="5.09964">
        <ele>364.96</ele>
        <time>2017-09-18T07:40:56Z</time>
      </trkpt>
      <trkpt lat="44.15539" lon="5.09966">
        <ele>364.96</ele>
        <time>2017-09-18T07:40:57Z</time>
      </trkpt>
      <trkpt lat="44.15539" lon="5.09984">
        <ele>362.55</ele>
        <time>2017-09-18T07:41:13Z</time>
      </trkpt>
      <trkpt lat="44.1554" lon="5.09999">
        <ele>359.19</ele>
        <time>2017-09-18T07:41:29Z</time>
      </trkpt>
      <trkpt lat="44.15543" lon="5.1001">
        <ele>357.75</ele>
        <time>2017-09-18T07:41:41Z</time>
      </trkpt>
      <trkpt lat="44.15545" lon="5.10026">
        <ele>354.86</ele>
        <time>2017-09-18T07:41:57Z</time>
      </trkpt>
      <trkpt lat="44.15544" lon="5.10024">
        <ele>355.34</ele>
        <time>2017-09-18T07:42:13Z</time>
      </trkpt>
      <trkpt lat="44.15545" lon="5.10032">
        <ele>354.86</ele>
        <time>2017-09-18T07:42:31Z</time>
      </trkpt>
      <trkpt lat="44.1555" lon="5.10051">
        <ele>355.34</ele>
        <time>2017-09-18T07:42:46Z</time>
      </trkpt>
      <trkpt lat="44.15558" lon="5.10079">
        <ele>356.31</ele>
        <time>2017-09-18T07:43:06Z</time>
      </trkpt>
      <trkpt lat="44.15563" lon="5.10084">
        <ele>356.79</ele>
        <time>2017-09-18T07:43:23Z</time>
      </trkpt>
      <trkpt lat="44.15566" lon="5.10089">
        <ele>358.23</ele>
        <time>2017-09-18T07:43:54Z</time>
      </trkpt>
      <trkpt lat="44.15583" lon="5.10095">
        <ele>360.15</ele>
        <time>2017-09-18T07:44:15Z</time>
      </trkpt>
      <trkpt lat="44.1559" lon="5.10109">
        <ele>361.11</ele>
        <time>2017-09-18T07:44:30Z</time>
      </trkpt>
      <trkpt lat="44.15592" lon="5.10123">
        <ele>361.11</ele>
        <time>2017-09-18T07:44:40Z</time>
      </trkpt>
      <trkpt lat="44.15598" lon="5.10158">
        <ele>361.59</ele>
        <time>2017-09-18T07:45:02Z</time>
      </trkpt>
      <trkpt lat="44.15601" lon="5.10182">
        <ele>361.11</ele>
        <time>2017-09-18T07:45:21Z</time>
      </trkpt>
      <trkpt lat="44.15602" lon="5.10194">
        <ele>360.15</ele>
        <time>2017-09-18T07:45:31Z</time>
      </trkpt>
      <trkpt lat="44.15604" lon="5.1021">
        <ele>357.75</ele>
        <time>2017-09-18T07:45:47Z</time>
      </trkpt>
      <trkpt lat="44.15608" lon="5.10223">
        <ele>355.34</ele>
        <time>2017-09-18T07:46:04Z</time>
      </trkpt>
      <trkpt lat="44.15612" lon="5.10239">
        <ele>352.94</ele>
        <time>2017-09-18T07:46:20Z</time>
      </trkpt>
      <trkpt lat="44.15619" lon="5.10256">
        <ele>351.02</ele>
        <time>2017-09-18T07:46:38Z</time>
      </trkpt>
      <trkpt lat="44.15626" lon="5.10274">
        <ele>349.58</ele>
        <time>2017-09-18T07:46:53Z</time>
      </trkpt>
      <trkpt lat="44.15632" lon="5.10296">
        <ele>347.17</ele>
        <time>2017-09-18T07:47:10Z</time>
      </trkpt>
      <trkpt lat="44.15637" lon="5.10319">
        <ele>346.21</ele>
        <time>2017-09-18T07:47:28Z</time>
      </trkpt>
      <trkpt lat="44.15646" lon="5.10343">
        <ele>344.29</ele>
        <time>2017-09-18T07:47:48Z</time>
      </trkpt>
      <trkpt lat="44.15647" lon="5.10351">
        <ele>344.29</ele>
        <time>2017-09-18T07:47:54Z</time>
      </trkpt>
      <trkpt lat="44.15652" lon="5.10369">
        <ele>342.37</ele>
        <time>2017-09-18T07:48:13Z</time>
      </trkpt>
      <trkpt lat="44.15652" lon="5.10367">
        <ele>342.85</ele>
        <time>2017-09-18T07:48:24Z</time>
      </trkpt>
      <trkpt lat="44.1565" lon="5.10379">
        <ele>341.89</ele>
        <time>2017-09-18T07:48:36Z</time>
      </trkpt>
      <trkpt lat="44.15656" lon="5.10395">
        <ele>339.96</ele>
        <time>2017-09-18T07:48:51Z</time>
      </trkpt>
      <trkpt lat="44.15659" lon="5.10408">
        <ele>339.96</ele>
        <time>2017-09-18T07:49:01Z</time>
      </trkpt>
      <trkpt lat="44.15667" lon="5.10437">
        <ele>339</ele>
        <time>2017-09-18T07:49:22Z</time>
      </trkpt>
      <trkpt lat="44.15677" lon="5.10467">
        <ele>338.04</ele>
        <time>2017-09-18T07:49:45Z</time>
      </trkpt>
      <trkpt lat="44.15688" lon="5.10486">
        <ele>337.56</ele>
        <time>2017-09-18T07:50:04Z</time>
      </trkpt>
      <trkpt lat="44.15697" lon="5.10506">
        <ele>337.08</ele>
        <time>2017-09-18T07:50:22Z</time>
      </trkpt>
      <trkpt lat="44.15705" lon="5.10528">
        <ele>336.6</ele>
        <time>2017-09-18T07:50:38Z</time>
      </trkpt>
      <trkpt lat="44.15707" lon="5.10531">
        <ele>336.6</ele>
        <time>2017-09-18T07:50:41Z</time>
      </trkpt>
      <trkpt lat="44.1572" lon="5.10534">
        <ele>336.6</ele>
        <time>2017-09-18T07:50:54Z</time>
      </trkpt>
      <trkpt lat="44.15735" lon="5.10541">
        <ele>334.68</ele>
        <time>2017-09-18T07:51:12Z</time>
      </trkpt>
      <trkpt lat="44.15746" lon="5.10547">
        <ele>333.23</ele>
        <time>2017-09-18T07:51:30Z</time>
      </trkpt>
      <trkpt lat="44.15754" lon="5.10554">
        <ele>331.31</ele>
        <time>2017-09-18T07:51:45Z</time>
      </trkpt>
      <trkpt lat="44.15771" lon="5.10561">
        <ele>329.39</ele>
        <time>2017-09-18T07:52:04Z</time>
      </trkpt>
      <trkpt lat="44.15789" lon="5.10573">
        <ele>327.95</ele>
        <time>2017-09-18T07:52:22Z</time>
      </trkpt>
      <trkpt lat="44.15802" lon="5.10579">
        <ele>327.95</ele>
        <time>2017-09-18T07:52:39Z</time>
      </trkpt>
      <trkpt lat="44.15822" lon="5.10582">
        <ele>327.95</ele>
        <time>2017-09-18T07:52:54Z</time>
      </trkpt>
      <trkpt lat="44.15828" lon="5.10582">
        <ele>329.39</ele>
        <time>2017-09-18T07:53:00Z</time>
      </trkpt>
      <trkpt lat="44.15846" lon="5.10579">
        <ele>330.35</ele>
        <time>2017-09-18T07:53:17Z</time>
      </trkpt>
      <trkpt lat="44.15857" lon="5.10579">
        <ele>329.39</ele>
        <time>2017-09-18T07:53:28Z</time>
      </trkpt>
      <trkpt lat="44.15868" lon="5.10592">
        <ele>328.91</ele>
        <time>2017-09-18T07:53:43Z</time>
      </trkpt>
      <trkpt lat="44.15882" lon="5.10596">
        <ele>329.39</ele>
        <time>2017-09-18T07:53:57Z</time>
      </trkpt>
      <trkpt lat="44.15892" lon="5.10591">
        <ele>330.35</ele>
        <time>2017-09-18T07:54:10Z</time>
      </trkpt>
      <trkpt lat="44.15903" lon="5.1058">
        <ele>331.31</ele>
        <time>2017-09-18T07:54:24Z</time>
      </trkpt>
      <trkpt lat="44.15906" lon="5.10576">
        <ele>331.79</ele>
        <time>2017-09-18T07:54:33Z</time>
      </trkpt>
      <trkpt lat="44.15907" lon="5.10573">
        <ele>334.2</ele>
        <time>2017-09-18T07:54:35Z</time>
      </trkpt>
      <trkpt lat="44.15911" lon="5.10567">
        <ele>331.31</ele>
        <time>2017-09-18T07:54:44Z</time>
      </trkpt>
      <trkpt lat="44.15921" lon="5.10559">
        <ele>333.23</ele>
        <time>2017-09-18T07:54:59Z</time>
      </trkpt>
      <trkpt lat="44.15936" lon="5.10546">
        <ele>333.23</ele>
        <time>2017-09-18T07:55:17Z</time>
      </trkpt>
      <trkpt lat="44.15951" lon="5.10535">
        <ele>333.71</ele>
        <time>2017-09-18T07:55:33Z</time>
      </trkpt>
      <trkpt lat="44.15965" lon="5.10535">
        <ele>334.2</ele>
        <time>2017-09-18T07:55:50Z</time>
      </trkpt>
      <trkpt lat="44.15981" lon="5.10553">
        <ele>333.71</ele>
        <time>2017-09-18T07:56:10Z</time>
      </trkpt>
      <trkpt lat="44.15997" lon="5.10568">
        <ele>334.68</ele>
        <time>2017-09-18T07:56:26Z</time>
      </trkpt>
      <trkpt lat="44.15999" lon="5.1057">
        <ele>333.23</ele>
        <time>2017-09-18T07:56:28Z</time>
      </trkpt>
      <trkpt lat="44.16001" lon="5.10574">
        <ele>335.64</ele>
        <time>2017-09-18T07:56:48Z</time>
      </trkpt>
      <trkpt lat="44.15998" lon="5.10571">
        <ele>335.64</ele>
        <time>2017-09-18T07:57:08Z</time>
      </trkpt>
      <trkpt lat="44.15988" lon="5.10559">
        <ele>334.2</ele>
        <time>2017-09-18T07:57:25Z</time>
      </trkpt>
      <trkpt lat="44.15985" lon="5.10558">
        <ele>333.71</ele>
        <time>2017-09-18T07:57:28Z</time>
      </trkpt>
      <trkpt lat="44.15978" lon="5.10552">
        <ele>333.23</ele>
        <time>2017-09-18T07:57:37Z</time>
      </trkpt>
      <trkpt lat="44.15973" lon="5.10539">
        <ele>333.23</ele>
        <time>2017-09-18T07:57:46Z</time>
      </trkpt>
      <trkpt lat="44.15965" lon="5.10529">
        <ele>333.23</ele>
        <time>2017-09-18T07:57:57Z</time>
      </trkpt>
      <trkpt lat="44.1596" lon="5.10526">
        <ele>334.2</ele>
        <time>2017-09-18T07:58:09Z</time>
      </trkpt>
      <trkpt lat="44.15958" lon="5.10525">
        <ele>334.68</ele>
        <time>2017-09-18T07:58:27Z</time>
      </trkpt>
      <trkpt lat="44.15958" lon="5.10525">
        <ele>334.68</ele>
        <time>2017-09-18T07:58:31Z</time>
      </trkpt>
      <trkpt lat="44.15958" lon="5.10522">
        <ele>338.04</ele>
        <time>2017-09-18T07:58:35Z</time>
      </trkpt>
      <trkpt lat="44.15958" lon="5.10523">
        <ele>334.2</ele>
        <time>2017-09-18T07:58:36Z</time>
      </trkpt>
      <trkpt lat="44.15955" lon="5.10518">
        <ele>332.75</ele>
        <time>2017-09-18T07:58:56Z</time>
      </trkpt>
      <trkpt lat="44.15958" lon="5.10524">
        <ele>333.23</ele>
        <time>2017-09-18T07:59:12Z</time>
      </trkpt>
      <trkpt lat="44.15961" lon="5.10525">
        <ele>333.23</ele>
        <time>2017-09-18T07:59:41Z</time>
      </trkpt>
      <trkpt lat="44.15957" lon="5.10522">
        <ele>333.23</ele>
        <time>2017-09-18T08:00:04Z</time>
      </trkpt>
      <trkpt lat="44.15955" lon="5.1053">
        <ele>333.23</ele>
        <time>2017-09-18T08:00:23Z</time>
      </trkpt>
      <trkpt lat="44.15945" lon="5.10536">
        <ele>333.23</ele>
        <time>2017-09-18T08:00:35Z</time>
      </trkpt>
      <trkpt lat="44.15928" lon="5.10552">
        <ele>332.75</ele>
        <time>2017-09-18T08:00:55Z</time>
      </trkpt>
      <trkpt lat="44.15912" lon="5.10569">
        <ele>332.27</ele>
        <time>2017-09-18T08:01:17Z</time>
      </trkpt>
      <trkpt lat="44.159" lon="5.10578">
        <ele>331.31</ele>
        <time>2017-09-18T08:01:32Z</time>
      </trkpt>
      <trkpt lat="44.15892" lon="5.10586">
        <ele>330.83</ele>
        <time>2017-09-18T08:01:43Z</time>
      </trkpt>
      <trkpt lat="44.15878" lon="5.10593">
        <ele>329.39</ele>
        <time>2017-09-18T08:01:59Z</time>
      </trkpt>
      <trkpt lat="44.1587" lon="5.10593">
        <ele>329.39</ele>
        <time>2017-09-18T08:02:07Z</time>
      </trkpt>
      <trkpt lat="44.15858" lon="5.10579">
        <ele>329.39</ele>
        <time>2017-09-18T08:02:23Z</time>
      </trkpt>
      <trkpt lat="44.15847" lon="5.10583">
        <ele>331.31</ele>
        <time>2017-09-18T08:02:36Z</time>
      </trkpt>
      <trkpt lat="44.15833" lon="5.10583">
        <ele>329.87</ele>
        <time>2017-09-18T08:02:51Z</time>
      </trkpt>
      <trkpt lat="44.15817" lon="5.1058">
        <ele>328.91</ele>
        <time>2017-09-18T08:03:09Z</time>
      </trkpt>
      <trkpt lat="44.15797" lon="5.10573">
        <ele>327.95</ele>
        <time>2017-09-18T08:03:29Z</time>
      </trkpt>
      <trkpt lat="44.15781" lon="5.10566">
        <ele>327.95</ele>
        <time>2017-09-18T08:03:43Z</time>
      </trkpt>
      <trkpt lat="44.15765" lon="5.10556">
        <ele>329.39</ele>
        <time>2017-09-18T08:04:00Z</time>
      </trkpt>
      <trkpt lat="44.15747" lon="5.10547">
        <ele>332.27</ele>
        <time>2017-09-18T08:04:19Z</time>
      </trkpt>
      <trkpt lat="44.15731" lon="5.1054">
        <ele>334.2</ele>
        <time>2017-09-18T08:04:36Z</time>
      </trkpt>
      <trkpt lat="44.15715" lon="5.10535">
        <ele>335.64</ele>
        <time>2017-09-18T08:04:53Z</time>
      </trkpt>
      <trkpt lat="44.15704" lon="5.10522">
        <ele>335.64</ele>
        <time>2017-09-18T08:05:11Z</time>
      </trkpt>
      <trkpt lat="44.15699" lon="5.10509">
        <ele>335.64</ele>
        <time>2017-09-18T08:05:21Z</time>
      </trkpt>
      <trkpt lat="44.15684" lon="5.10484">
        <ele>336.12</ele>
        <time>2017-09-18T08:05:41Z</time>
      </trkpt>
      <trkpt lat="44.15675" lon="5.10457">
        <ele>336.12</ele>
        <time>2017-09-18T08:06:02Z</time>
      </trkpt>
      <trkpt lat="44.15665" lon="5.10425">
        <ele>336.6</ele>
        <time>2017-09-18T08:06:24Z</time>
      </trkpt>
      <trkpt lat="44.15656" lon="5.10393">
        <ele>338.04</ele>
        <time>2017-09-18T08:06:46Z</time>
      </trkpt>
      <trkpt lat="44.1565" lon="5.10367">
        <ele>340.44</ele>
        <time>2017-09-18T08:07:06Z</time>
      </trkpt>
      <trkpt lat="44.15659" lon="5.10355">
        <ele>340.44</ele>
        <time>2017-09-18T08:07:26Z</time>
      </trkpt>
      <trkpt lat="44.1567" lon="5.10347">
        <ele>340.44</ele>
        <time>2017-09-18T08:07:43Z</time>
      </trkpt>
      <trkpt lat="44.15689" lon="5.10332">
        <ele>339</ele>
        <time>2017-09-18T08:08:04Z</time>
      </trkpt>
      <trkpt lat="44.15709" lon="5.10315">
        <ele>339</ele>
        <time>2017-09-18T08:08:27Z</time>
      </trkpt>
      <trkpt lat="44.15729" lon="5.10302">
        <ele>339</ele>
        <time>2017-09-18T08:08:48Z</time>
      </trkpt>
      <trkpt lat="44.15735" lon="5.103">
        <ele>339.48</ele>
        <time>2017-09-18T08:09:06Z</time>
      </trkpt>
      <trkpt lat="44.15752" lon="5.1029">
        <ele>339.48</ele>
        <time>2017-09-18T08:09:24Z</time>
      </trkpt>
      <trkpt lat="44.15766" lon="5.10283">
        <ele>339.48</ele>
        <time>2017-09-18T08:09:42Z</time>
      </trkpt>
      <trkpt lat="44.15768" lon="5.10285">
        <ele>339.48</ele>
        <time>2017-09-18T08:09:58Z</time>
      </trkpt>
      <trkpt lat="44.15773" lon="5.10282">
        <ele>339.48</ele>
        <time>2017-09-18T08:10:24Z</time>
      </trkpt>
      <trkpt lat="44.15779" lon="5.10278">
        <ele>339.48</ele>
        <time>2017-09-18T08:10:31Z</time>
      </trkpt>
      <trkpt lat="44.158" lon="5.10266">
        <ele>339.48</ele>
        <time>2017-09-18T08:10:53Z</time>
      </trkpt>
      <trkpt lat="44.15805" lon="5.10265">
        <ele>340.44</ele>
        <time>2017-09-18T08:11:04Z</time>
      </trkpt>
      <trkpt lat="44.15812" lon="5.10262">
        <ele>340.44</ele>
        <time>2017-09-18T08:11:22Z</time>
      </trkpt>
      <trkpt lat="44.15817" lon="5.10261">
        <ele>340.44</ele>
        <time>2017-09-18T08:11:40Z</time>
      </trkpt>
      <trkpt lat="44.15828" lon="5.10255">
        <ele>340.44</ele>
        <time>2017-09-18T08:11:55Z</time>
      </trkpt>
      <trkpt lat="44.15849" lon="5.10249">
        <ele>340.44</ele>
        <time>2017-09-18T08:12:16Z</time>
      </trkpt>
      <trkpt lat="44.15854" lon="5.10246">
        <ele>341.41</ele>
        <time>2017-09-18T08:12:29Z</time>
      </trkpt>
      <trkpt lat="44.15859" lon="5.10247">
        <ele>341.41</ele>
        <time>2017-09-18T08:12:44Z</time>
      </trkpt>
      <trkpt lat="44.1587" lon="5.10245">
        <ele>341.89</ele>
        <time>2017-09-18T08:13:03Z</time>
      </trkpt>
      <trkpt lat="44.15884" lon="5.1023">
        <ele>343.33</ele>
        <time>2017-09-18T08:13:21Z</time>
      </trkpt>
      <trkpt lat="44.15899" lon="5.10214">
        <ele>346.21</ele>
        <time>2017-09-18T08:13:41Z</time>
      </trkpt>
      <trkpt lat="44.15914" lon="5.10205">
        <ele>348.13</ele>
        <time>2017-09-18T08:13:58Z</time>
      </trkpt>
      <trkpt lat="44.1593" lon="5.10207">
        <ele>350.06</ele>
        <time>2017-09-18T08:14:15Z</time>
      </trkpt>
      <trkpt lat="44.15942" lon="5.10202">
        <ele>351.5</ele>
        <time>2017-09-18T08:14:31Z</time>
      </trkpt>
      <trkpt lat="44.15955" lon="5.10197">
        <ele>353.42</ele>
        <time>2017-09-18T08:14:46Z</time>
      </trkpt>
      <trkpt lat="44.15975" lon="5.10198">
        <ele>352.94</ele>
        <time>2017-09-18T08:15:04Z</time>
      </trkpt>
      <trkpt lat="44.15999" lon="5.10204">
        <ele>353.9</ele>
        <time>2017-09-18T08:15:26Z</time>
      </trkpt>
      <trkpt lat="44.1602" lon="5.10205">
        <ele>355.83</ele>
        <time>2017-09-18T08:15:46Z</time>
      </trkpt>
      <trkpt lat="44.16031" lon="5.10207">
        <ele>357.75</ele>
        <time>2017-09-18T08:16:02Z</time>
      </trkpt>
      <trkpt lat="44.1605" lon="5.10209">
        <ele>361.11</ele>
        <time>2017-09-18T08:16:24Z</time>
      </trkpt>
      <trkpt lat="44.16062" lon="5.10204">
        <ele>362.55</ele>
        <time>2017-09-18T08:16:39Z</time>
      </trkpt>
      <trkpt lat="44.16078" lon="5.10199">
        <ele>364.48</ele>
        <time>2017-09-18T08:16:57Z</time>
      </trkpt>
      <trkpt lat="44.16093" lon="5.10195">
        <ele>366.88</ele>
        <time>2017-09-18T08:17:15Z</time>
      </trkpt>
      <trkpt lat="44.16106" lon="5.10193">
        <ele>369.76</ele>
        <time>2017-09-18T08:17:33Z</time>
      </trkpt>
      <trkpt lat="44.16124" lon="5.1019">
        <ele>372.65</ele>
        <time>2017-09-18T08:17:52Z</time>
      </trkpt>
      <trkpt lat="44.16143" lon="5.10192">
        <ele>376.01</ele>
        <time>2017-09-18T08:18:12Z</time>
      </trkpt>
      <trkpt lat="44.16146" lon="5.10189">
        <ele>376.49</ele>
        <time>2017-09-18T08:18:27Z</time>
      </trkpt>
      <trkpt lat="44.16144" lon="5.1019">
        <ele>376.97</ele>
        <time>2017-09-18T08:18:48Z</time>
      </trkpt>
      <trkpt lat="44.16144" lon="5.1019">
        <ele>376.97</ele>
        <time>2017-09-18T08:19:14Z</time>
      </trkpt>
      <trkpt lat="44.16144" lon="5.10193">
        <ele>376.97</ele>
        <time>2017-09-18T08:19:33Z</time>
      </trkpt>
      <trkpt lat="44.16144" lon="5.1019">
        <ele>376.97</ele>
        <time>2017-09-18T08:19:51Z</time>
      </trkpt>
      <trkpt lat="44.16145" lon="5.10189">
        <ele>376.49</ele>
        <time>2017-09-18T08:20:17Z</time>
      </trkpt>
      <trkpt lat="44.16146" lon="5.10192">
        <ele>376.49</ele>
        <time>2017-09-18T08:20:46Z</time>
      </trkpt>
      <trkpt lat="44.16145" lon="5.10189">
        <ele>376.49</ele>
        <time>2017-09-18T08:21:09Z</time>
      </trkpt>
      <trkpt lat="44.16146" lon="5.10189">
        <ele>376.49</ele>
        <time>2017-09-18T08:21:46Z</time>
      </trkpt>
      <trkpt lat="44.16146" lon="5.10189">
        <ele>373.13</ele>
        <time>2017-09-18T08:22:05Z</time>
      </trkpt>
      <trkpt lat="44.16147" lon="5.1019">
        <ele>378.9</ele>
        <time>2017-09-18T08:22:06Z</time>
      </trkpt>
      <trkpt lat="44.16146" lon="5.1019">
        <ele>376.97</ele>
        <time>2017-09-18T08:22:09Z</time>
      </trkpt>
      <trkpt lat="44.16145" lon="5.10191">
        <ele>376.97</ele>
        <time>2017-09-18T08:22:35Z</time>
      </trkpt>
      <trkpt lat="44.16149" lon="5.10185">
        <ele>376.97</ele>
        <time>2017-09-18T08:22:53Z</time>
      </trkpt>
      <trkpt lat="44.16163" lon="5.10177">
        <ele>376.97</ele>
        <time>2017-09-18T08:23:10Z</time>
      </trkpt>
      <trkpt lat="44.1618" lon="5.1017">
        <ele>378.9</ele>
        <time>2017-09-18T08:23:30Z</time>
      </trkpt>
      <trkpt lat="44.16184" lon="5.10166">
        <ele>378.9</ele>
        <time>2017-09-18T08:23:42Z</time>
      </trkpt>
      <trkpt lat="44.16201" lon="5.10157">
        <ele>380.34</ele>
        <time>2017-09-18T08:24:00Z</time>
      </trkpt>
      <trkpt lat="44.16205" lon="5.10151">
        <ele>380.82</ele>
        <time>2017-09-18T08:24:06Z</time>
      </trkpt>
      <trkpt lat="44.16219" lon="5.10128">
        <ele>381.78</ele>
        <time>2017-09-18T08:24:27Z</time>
      </trkpt>
      <trkpt lat="44.16227" lon="5.10109">
        <ele>382.26</ele>
        <time>2017-09-18T08:24:44Z</time>
      </trkpt>
      <trkpt lat="44.16228" lon="5.10108">
        <ele>382.26</ele>
        <time>2017-09-18T08:24:45Z</time>
      </trkpt>
      <trkpt lat="44.16243" lon="5.10086">
        <ele>382.74</ele>
        <time>2017-09-18T08:25:08Z</time>
      </trkpt>
      <trkpt lat="44.16262" lon="5.10069">
        <ele>382.74</ele>
        <time>2017-09-18T08:25:30Z</time>
      </trkpt>
      <trkpt lat="44.16277" lon="5.10056">
        <ele>383.22</ele>
        <time>2017-09-18T08:25:48Z</time>
      </trkpt>
      <trkpt lat="44.16283" lon="5.10053">
        <ele>384.18</ele>
        <time>2017-09-18T08:26:06Z</time>
      </trkpt>
      <trkpt lat="44.16293" lon="5.10048">
        <ele>386.11</ele>
        <time>2017-09-18T08:26:20Z</time>
      </trkpt>
      <trkpt lat="44.16306" lon="5.10036">
        <ele>386.59</ele>
        <time>2017-09-18T08:26:36Z</time>
      </trkpt>
      <trkpt lat="44.16313" lon="5.10028">
        <ele>388.51</ele>
        <time>2017-09-18T08:26:53Z</time>
      </trkpt>
      <trkpt lat="44.16315" lon="5.1003">
        <ele>388.03</ele>
        <time>2017-09-18T08:27:18Z</time>
      </trkpt>
      <trkpt lat="44.16314" lon="5.10027">
        <ele>388.03</ele>
        <time>2017-09-18T08:27:35Z</time>
      </trkpt>
      <trkpt lat="44.16314" lon="5.10025">
        <ele>388.03</ele>
        <time>2017-09-18T08:27:54Z</time>
      </trkpt>
      <trkpt lat="44.16314" lon="5.10026">
        <ele>388.03</ele>
        <time>2017-09-18T08:28:19Z</time>
      </trkpt>
      <trkpt lat="44.16315" lon="5.10026">
        <ele>388.03</ele>
        <time>2017-09-18T08:28:39Z</time>
      </trkpt>
      <trkpt lat="44.16314" lon="5.10026">
        <ele>388.03</ele>
        <time>2017-09-18T08:29:05Z</time>
      </trkpt>
      <trkpt lat="44.16315" lon="5.1003">
        <ele>388.03</ele>
        <time>2017-09-18T08:29:25Z</time>
      </trkpt>
      <trkpt lat="44.16314" lon="5.10029">
        <ele>388.03</ele>
        <time>2017-09-18T08:29:47Z</time>
      </trkpt>
      <trkpt lat="44.16315" lon="5.10026">
        <ele>388.51</ele>
        <time>2017-09-18T08:30:06Z</time>
      </trkpt>
      <trkpt lat="44.16314" lon="5.10031">
        <ele>388.51</ele>
        <time>2017-09-18T08:30:28Z</time>
      </trkpt>
      <trkpt lat="44.16312" lon="5.10031">
        <ele>388.03</ele>
        <time>2017-09-18T08:30:49Z</time>
      </trkpt>
      <trkpt lat="44.16312" lon="5.1003">
        <ele>388.03</ele>
        <time>2017-09-18T08:31:18Z</time>
      </trkpt>
      <trkpt lat="44.16313" lon="5.10031">
        <ele>388.03</ele>
        <time>2017-09-18T08:31:45Z</time>
      </trkpt>
      <trkpt lat="44.16323" lon="5.10037">
        <ele>389.47</ele>
        <time>2017-09-18T08:32:01Z</time>
      </trkpt>
      <trkpt lat="44.16326" lon="5.10034">
        <ele>389.95</ele>
        <time>2017-09-18T08:32:19Z</time>
      </trkpt>
      <trkpt lat="44.16325" lon="5.10035">
        <ele>389.95</ele>
        <time>2017-09-18T08:32:37Z</time>
      </trkpt>
      <trkpt lat="44.16316" lon="5.10034">
        <ele>388.51</ele>
        <time>2017-09-18T08:32:50Z</time>
      </trkpt>
      <trkpt lat="44.16315" lon="5.10032">
        <ele>388.51</ele>
        <time>2017-09-18T08:33:05Z</time>
      </trkpt>
      <trkpt lat="44.16314" lon="5.10031">
        <ele>388.51</ele>
        <time>2017-09-18T08:33:23Z</time>
      </trkpt>
      <trkpt lat="44.16314" lon="5.10031">
        <ele>388.03</ele>
        <time>2017-09-18T08:33:50Z</time>
      </trkpt>
      <trkpt lat="44.16312" lon="5.1003">
        <ele>388.03</ele>
        <time>2017-09-18T08:34:16Z</time>
      </trkpt>
      <trkpt lat="44.16313" lon="5.10029">
        <ele>388.03</ele>
        <time>2017-09-18T08:34:41Z</time>
      </trkpt>
      <trkpt lat="44.16314" lon="5.10031">
        <ele>388.51</ele>
        <time>2017-09-18T08:35:11Z</time>
      </trkpt>
      <trkpt lat="44.16314" lon="5.10029">
        <ele>388.03</ele>
        <time>2017-09-18T08:35:38Z</time>
      </trkpt>
      <trkpt lat="44.16313" lon="5.10032">
        <ele>388.03</ele>
        <time>2017-09-18T08:36:07Z</time>
      </trkpt>
      <trkpt lat="44.16312" lon="5.10035">
        <ele>388.03</ele>
        <time>2017-09-18T08:36:41Z</time>
      </trkpt>
      <trkpt lat="44.16313" lon="5.1003">
        <ele>388.03</ele>
        <time>2017-09-18T08:37:02Z</time>
      </trkpt>
      <trkpt lat="44.16309" lon="5.10026">
        <ele>388.51</ele>
        <time>2017-09-18T08:37:27Z</time>
      </trkpt>
      <trkpt lat="44.16311" lon="5.1001">
        <ele>388.03</ele>
        <time>2017-09-18T08:37:43Z</time>
      </trkpt>
      <trkpt lat="44.1631" lon="5.10013">
        <ele>388.03</ele>
        <time>2017-09-18T08:38:10Z</time>
      </trkpt>
      <trkpt lat="44.16311" lon="5.10033">
        <ele>388.03</ele>
        <time>2017-09-18T08:38:27Z</time>
      </trkpt>
      <trkpt lat="44.16315" lon="5.10035">
        <ele>388.03</ele>
        <time>2017-09-18T08:38:45Z</time>
      </trkpt>
      <trkpt lat="44.16316" lon="5.10035">
        <ele>388.51</ele>
        <time>2017-09-18T08:39:09Z</time>
      </trkpt>
      <trkpt lat="44.16316" lon="5.10033">
        <ele>388.51</ele>
        <time>2017-09-18T08:39:44Z</time>
      </trkpt>
      <trkpt lat="44.16314" lon="5.10033">
        <ele>388.51</ele>
        <time>2017-09-18T08:40:23Z</time>
      </trkpt>
      <trkpt lat="44.16313" lon="5.10034">
        <ele>389.47</ele>
        <time>2017-09-18T08:40:46Z</time>
      </trkpt>
      <trkpt lat="44.16315" lon="5.10032">
        <ele>389.47</ele>
        <time>2017-09-18T08:41:02Z</time>
      </trkpt>
      <trkpt lat="44.16314" lon="5.10032">
        <ele>385.15</ele>
        <time>2017-09-18T08:41:04Z</time>
      </trkpt>
      <trkpt lat="44.16314" lon="5.10032">
        <ele>394.28</ele>
        <time>2017-09-18T08:41:05Z</time>
      </trkpt>
      <trkpt lat="44.16314" lon="5.10032">
        <ele>388.99</ele>
        <time>2017-09-18T08:41:06Z</time>
      </trkpt>
      <trkpt lat="44.16314" lon="5.10035">
        <ele>389.47</ele>
        <time>2017-09-18T08:41:25Z</time>
      </trkpt>
      <trkpt lat="44.16313" lon="5.10035">
        <ele>389.47</ele>
        <time>2017-09-18T08:41:44Z</time>
      </trkpt>
      <trkpt lat="44.16312" lon="5.10035">
        <ele>389.47</ele>
        <time>2017-09-18T08:42:17Z</time>
      </trkpt>
      <trkpt lat="44.16312" lon="5.10038">
        <ele>389.47</ele>
        <time>2017-09-18T08:42:45Z</time>
      </trkpt>
      <trkpt lat="44.16314" lon="5.10039">
        <ele>388.99</ele>
        <time>2017-09-18T08:43:11Z</time>
      </trkpt>
      <trkpt lat="44.16311" lon="5.10038">
        <ele>388.99</ele>
        <time>2017-09-18T08:43:35Z</time>
      </trkpt>
      <trkpt lat="44.16312" lon="5.10038">
        <ele>388.99</ele>
        <time>2017-09-18T08:44:00Z</time>
      </trkpt>
      <trkpt lat="44.16313" lon="5.10038">
        <ele>388.99</ele>
        <time>2017-09-18T08:44:33Z</time>
      </trkpt>
      <trkpt lat="44.16315" lon="5.10041">
        <ele>388.99</ele>
        <time>2017-09-18T08:44:52Z</time>
      </trkpt>
      <trkpt lat="44.1633" lon="5.10035">
        <ele>391.87</ele>
        <time>2017-09-18T08:45:09Z</time>
      </trkpt>
      <trkpt lat="44.16332" lon="5.10031">
        <ele>391.87</ele>
        <time>2017-09-18T08:45:24Z</time>
      </trkpt>
      <trkpt lat="44.16341" lon="5.10018">
        <ele>392.36</ele>
        <time>2017-09-18T08:45:38Z</time>
      </trkpt>
      <trkpt lat="44.16353" lon="5.1">
        <ele>392.84</ele>
        <time>2017-09-18T08:45:55Z</time>
      </trkpt>
      <trkpt lat="44.16354" lon="5.09996">
        <ele>393.32</ele>
        <time>2017-09-18T08:45:58Z</time>
      </trkpt>
      <trkpt lat="44.16355" lon="5.09992">
        <ele>392.84</ele>
        <time>2017-09-18T08:46:01Z</time>
      </trkpt>
      <trkpt lat="44.16364" lon="5.09972">
        <ele>394.28</ele>
        <time>2017-09-18T08:46:20Z</time>
      </trkpt>
      <trkpt lat="44.16373" lon="5.09953">
        <ele>395.72</ele>
        <time>2017-09-18T08:46:37Z</time>
      </trkpt>
      <trkpt lat="44.16378" lon="5.09944">
        <ele>396.68</ele>
        <time>2017-09-18T08:46:54Z</time>
      </trkpt>
      <trkpt lat="44.16386" lon="5.09933">
        <ele>396.68</ele>
        <time>2017-09-18T08:47:09Z</time>
      </trkpt>
      <trkpt lat="44.16399" lon="5.09918">
        <ele>397.16</ele>
        <time>2017-09-18T08:47:28Z</time>
      </trkpt>
      <trkpt lat="44.16413" lon="5.09903">
        <ele>397.64</ele>
        <time>2017-09-18T08:47:46Z</time>
      </trkpt>
      <trkpt lat="44.16419" lon="5.09894">
        <ele>398.12</ele>
        <time>2017-09-18T08:47:56Z</time>
      </trkpt>
      <trkpt lat="44.16435" lon="5.09876">
        <ele>399.57</ele>
        <time>2017-09-18T08:48:18Z</time>
      </trkpt>
      <trkpt lat="44.16442" lon="5.09867">
        <ele>400.05</ele>
        <time>2017-09-18T08:48:34Z</time>
      </trkpt>
      <trkpt lat="44.16447" lon="5.09866">
        <ele>400.05</ele>
        <time>2017-09-18T08:49:07Z</time>
      </trkpt>
      <trkpt lat="44.16462" lon="5.09854">
        <ele>400.53</ele>
        <time>2017-09-18T08:49:27Z</time>
      </trkpt>
      <trkpt lat="44.16477" lon="5.09845">
        <ele>401.01</ele>
        <time>2017-09-18T08:49:44Z</time>
      </trkpt>
      <trkpt lat="44.16491" lon="5.09838">
        <ele>401.01</ele>
        <time>2017-09-18T08:49:59Z</time>
      </trkpt>
      <trkpt lat="44.16509" lon="5.09827">
        <ele>399.57</ele>
        <time>2017-09-18T08:50:17Z</time>
      </trkpt>
      <trkpt lat="44.16521" lon="5.09821">
        <ele>399.57</ele>
        <time>2017-09-18T08:50:30Z</time>
      </trkpt>
      <trkpt lat="44.16534" lon="5.09811">
        <ele>399.57</ele>
        <time>2017-09-18T08:50:45Z</time>
      </trkpt>
      <trkpt lat="44.1654" lon="5.09806">
        <ele>399.57</ele>
        <time>2017-09-18T08:50:52Z</time>
      </trkpt>
      <trkpt lat="44.16553" lon="5.09796">
        <ele>401.49</ele>
        <time>2017-09-18T08:51:07Z</time>
      </trkpt>
      <trkpt lat="44.16563" lon="5.09796">
        <ele>399.08</ele>
        <time>2017-09-18T08:51:21Z</time>
      </trkpt>
      <trkpt lat="44.16575" lon="5.09789">
        <ele>398.12</ele>
        <time>2017-09-18T08:51:37Z</time>
      </trkpt>
      <trkpt lat="44.16582" lon="5.09776">
        <ele>397.64</ele>
        <time>2017-09-18T08:51:48Z</time>
      </trkpt>
      <trkpt lat="44.16593" lon="5.09758">
        <ele>397.16</ele>
        <time>2017-09-18T08:52:05Z</time>
      </trkpt>
      <trkpt lat="44.16603" lon="5.09736">
        <ele>397.16</ele>
        <time>2017-09-18T08:52:23Z</time>
      </trkpt>
      <trkpt lat="44.16615" lon="5.09724">
        <ele>398.6</ele>
        <time>2017-09-18T08:52:38Z</time>
      </trkpt>
      <trkpt lat="44.16628" lon="5.09715">
        <ele>398.6</ele>
        <time>2017-09-18T08:52:52Z</time>
      </trkpt>
      <trkpt lat="44.16641" lon="5.09714">
        <ele>400.53</ele>
        <time>2017-09-18T08:53:08Z</time>
      </trkpt>
      <trkpt lat="44.16649" lon="5.09724">
        <ele>402.45</ele>
        <time>2017-09-18T08:53:24Z</time>
      </trkpt>
      <trkpt lat="44.16658" lon="5.09738">
        <ele>404.37</ele>
        <time>2017-09-18T08:53:42Z</time>
      </trkpt>
      <trkpt lat="44.16666" lon="5.09751">
        <ele>406.29</ele>
        <time>2017-09-18T08:53:59Z</time>
      </trkpt>
      <trkpt lat="44.16672" lon="5.09759">
        <ele>408.22</ele>
        <time>2017-09-18T08:54:14Z</time>
      </trkpt>
      <trkpt lat="44.16682" lon="5.09764">
        <ele>410.14</ele>
        <time>2017-09-18T08:54:30Z</time>
      </trkpt>
      <trkpt lat="44.16692" lon="5.09759">
        <ele>412.06</ele>
        <time>2017-09-18T08:54:45Z</time>
      </trkpt>
      <trkpt lat="44.16704" lon="5.09753">
        <ele>413.5</ele>
        <time>2017-09-18T08:55:01Z</time>
      </trkpt>
      <trkpt lat="44.16718" lon="5.0975">
        <ele>413.98</ele>
        <time>2017-09-18T08:55:16Z</time>
      </trkpt>
      <trkpt lat="44.1673" lon="5.09747">
        <ele>415.43</ele>
        <time>2017-09-18T08:55:31Z</time>
      </trkpt>
      <trkpt lat="44.16734" lon="5.09743">
        <ele>415.91</ele>
        <time>2017-09-18T08:55:45Z</time>
      </trkpt>
      <trkpt lat="44.16735" lon="5.09741">
        <ele>415.91</ele>
        <time>2017-09-18T08:56:11Z</time>
      </trkpt>
      <trkpt lat="44.16734" lon="5.09744">
        <ele>415.91</ele>
        <time>2017-09-18T08:56:29Z</time>
      </trkpt>
      <trkpt lat="44.16735" lon="5.0974">
        <ele>415.91</ele>
        <time>2017-09-18T08:56:50Z</time>
      </trkpt>
      <trkpt lat="44.1674" lon="5.09727">
        <ele>414.95</ele>
        <time>2017-09-18T08:57:05Z</time>
      </trkpt>
      <trkpt lat="44.16741" lon="5.09723">
        <ele>414.95</ele>
        <time>2017-09-18T08:57:08Z</time>
      </trkpt>
      <trkpt lat="44.1675" lon="5.09705">
        <ele>413.98</ele>
        <time>2017-09-18T08:57:24Z</time>
      </trkpt>
      <trkpt lat="44.16763" lon="5.0969">
        <ele>413.5</ele>
        <time>2017-09-18T08:57:41Z</time>
      </trkpt>
      <trkpt lat="44.16766" lon="5.09688">
        <ele>413.5</ele>
        <time>2017-09-18T08:57:45Z</time>
      </trkpt>
      <trkpt lat="44.1678" lon="5.09679">
        <ele>413.5</ele>
        <time>2017-09-18T08:58:01Z</time>
      </trkpt>
      <trkpt lat="44.16793" lon="5.09672">
        <ele>412.54</ele>
        <time>2017-09-18T08:58:16Z</time>
      </trkpt>
      <trkpt lat="44.1681" lon="5.09669">
        <ele>412.54</ele>
        <time>2017-09-18T08:58:33Z</time>
      </trkpt>
      <trkpt lat="44.16824" lon="5.09666">
        <ele>412.06</ele>
        <time>2017-09-18T08:58:48Z</time>
      </trkpt>
      <trkpt lat="44.16836" lon="5.09659">
        <ele>411.58</ele>
        <time>2017-09-18T08:59:02Z</time>
      </trkpt>
      <trkpt lat="44.16858" lon="5.09648">
        <ele>411.58</ele>
        <time>2017-09-18T08:59:22Z</time>
      </trkpt>
      <trkpt lat="44.16871" lon="5.09637">
        <ele>411.58</ele>
        <time>2017-09-18T08:59:38Z</time>
      </trkpt>
      <trkpt lat="44.16885" lon="5.09625">
        <ele>411.58</ele>
        <time>2017-09-18T08:59:54Z</time>
      </trkpt>
      <trkpt lat="44.16899" lon="5.09615">
        <ele>413.02</ele>
        <time>2017-09-18T09:00:09Z</time>
      </trkpt>
      <trkpt lat="44.16903" lon="5.0961">
        <ele>413.02</ele>
        <time>2017-09-18T09:00:14Z</time>
      </trkpt>
      <trkpt lat="44.16906" lon="5.09608">
        <ele>413.02</ele>
        <time>2017-09-18T09:00:17Z</time>
      </trkpt>
      <trkpt lat="44.16921" lon="5.09597">
        <ele>413.02</ele>
        <time>2017-09-18T09:00:33Z</time>
      </trkpt>
      <trkpt lat="44.16937" lon="5.09583">
        <ele>413.02</ele>
        <time>2017-09-18T09:00:51Z</time>
      </trkpt>
      <trkpt lat="44.1695" lon="5.09569">
        <ele>413.02</ele>
        <time>2017-09-18T09:01:07Z</time>
      </trkpt>
      <trkpt lat="44.1696" lon="5.0956">
        <ele>413.02</ele>
        <time>2017-09-18T09:01:17Z</time>
      </trkpt>
      <trkpt lat="44.16965" lon="5.09557">
        <ele>413.02</ele>
        <time>2017-09-18T09:01:22Z</time>
      </trkpt>
      <trkpt lat="44.16978" lon="5.09547">
        <ele>413.02</ele>
        <time>2017-09-18T09:01:38Z</time>
      </trkpt>
      <trkpt lat="44.16991" lon="5.09537">
        <ele>412.54</ele>
        <time>2017-09-18T09:01:52Z</time>
      </trkpt>
      <trkpt lat="44.17002" lon="5.09523">
        <ele>411.58</ele>
        <time>2017-09-18T09:02:07Z</time>
      </trkpt>
      <trkpt lat="44.17012" lon="5.09517">
        <ele>411.58</ele>
        <time>2017-09-18T09:02:26Z</time>
      </trkpt>
      <trkpt lat="44.17025" lon="5.0952">
        <ele>413.02</ele>
        <time>2017-09-18T09:02:44Z</time>
      </trkpt>
      <trkpt lat="44.17042" lon="5.09519">
        <ele>413.98</ele>
        <time>2017-09-18T09:03:01Z</time>
      </trkpt>
      <trkpt lat="44.17057" lon="5.09517">
        <ele>415.43</ele>
        <time>2017-09-18T09:03:18Z</time>
      </trkpt>
      <trkpt lat="44.17073" lon="5.09512">
        <ele>416.39</ele>
        <time>2017-09-18T09:03:34Z</time>
      </trkpt>
      <trkpt lat="44.17087" lon="5.09505">
        <ele>416.39</ele>
        <time>2017-09-18T09:03:49Z</time>
      </trkpt>
      <trkpt lat="44.17104" lon="5.09496">
        <ele>416.39</ele>
        <time>2017-09-18T09:04:05Z</time>
      </trkpt>
      <trkpt lat="44.17108" lon="5.09494">
        <ele>415.43</ele>
        <time>2017-09-18T09:04:09Z</time>
      </trkpt>
      <trkpt lat="44.17122" lon="5.09481">
        <ele>414.95</ele>
        <time>2017-09-18T09:04:24Z</time>
      </trkpt>
      <trkpt lat="44.17138" lon="5.09467">
        <ele>414.47</ele>
        <time>2017-09-18T09:04:43Z</time>
      </trkpt>
      <trkpt lat="44.17156" lon="5.09451">
        <ele>413.98</ele>
        <time>2017-09-18T09:05:00Z</time>
      </trkpt>
      <trkpt lat="44.17157" lon="5.09445">
        <ele>413.5</ele>
        <time>2017-09-18T09:05:20Z</time>
      </trkpt>
      <trkpt lat="44.17168" lon="5.09437">
        <ele>412.54</ele>
        <time>2017-09-18T09:05:32Z</time>
      </trkpt>
      <trkpt lat="44.17176" lon="5.09423">
        <ele>412.06</ele>
        <time>2017-09-18T09:05:46Z</time>
      </trkpt>
      <trkpt lat="44.17186" lon="5.09411">
        <ele>411.58</ele>
        <time>2017-09-18T09:06:00Z</time>
      </trkpt>
      <trkpt lat="44.17192" lon="5.09406">
        <ele>411.58</ele>
        <time>2017-09-18T09:06:08Z</time>
      </trkpt>
      <trkpt lat="44.17207" lon="5.09408">
        <ele>411.1</ele>
        <time>2017-09-18T09:06:25Z</time>
      </trkpt>
      <trkpt lat="44.17226" lon="5.09406">
        <ele>410.14</ele>
        <time>2017-09-18T09:06:43Z</time>
      </trkpt>
      <trkpt lat="44.17241" lon="5.09407">
        <ele>409.66</ele>
        <time>2017-09-18T09:06:57Z</time>
      </trkpt>
      <trkpt lat="44.17257" lon="5.09407">
        <ele>409.66</ele>
        <time>2017-09-18T09:07:11Z</time>
      </trkpt>
      <trkpt lat="44.17275" lon="5.09405">
        <ele>409.66</ele>
        <time>2017-09-18T09:07:26Z</time>
      </trkpt>
      <trkpt lat="44.17283" lon="5.09406">
        <ele>411.1</ele>
        <time>2017-09-18T09:07:34Z</time>
      </trkpt>
      <trkpt lat="44.17299" lon="5.09393">
        <ele>412.06</ele>
        <time>2017-09-18T09:07:51Z</time>
      </trkpt>
      <trkpt lat="44.1731" lon="5.09379">
        <ele>413.98</ele>
        <time>2017-09-18T09:08:08Z</time>
      </trkpt>
      <trkpt lat="44.17319" lon="5.0937">
        <ele>415.43</ele>
        <time>2017-09-18T09:08:22Z</time>
      </trkpt>
      <trkpt lat="44.17335" lon="5.09355">
        <ele>417.35</ele>
        <time>2017-09-18T09:08:40Z</time>
      </trkpt>
      <trkpt lat="44.17347" lon="5.09347">
        <ele>419.75</ele>
        <time>2017-09-18T09:08:58Z</time>
      </trkpt>
      <trkpt lat="44.17354" lon="5.09335">
        <ele>422.64</ele>
        <time>2017-09-18T09:09:14Z</time>
      </trkpt>
      <trkpt lat="44.17365" lon="5.09332">
        <ele>424.56</ele>
        <time>2017-09-18T09:09:29Z</time>
      </trkpt>
      <trkpt lat="44.17378" lon="5.09336">
        <ele>426.48</ele>
        <time>2017-09-18T09:09:44Z</time>
      </trkpt>
      <trkpt lat="44.17393" lon="5.09344">
        <ele>429.37</ele>
        <time>2017-09-18T09:10:03Z</time>
      </trkpt>
      <trkpt lat="44.17406" lon="5.09351">
        <ele>430.81</ele>
        <time>2017-09-18T09:10:20Z</time>
      </trkpt>
      <trkpt lat="44.17416" lon="5.09352">
        <ele>430.81</ele>
        <time>2017-09-18T09:10:37Z</time>
      </trkpt>
      <trkpt lat="44.17416" lon="5.09351">
        <ele>431.29</ele>
        <time>2017-09-18T09:10:55Z</time>
      </trkpt>
      <trkpt lat="44.17416" lon="5.0935">
        <ele>432.25</ele>
        <time>2017-09-18T09:11:20Z</time>
      </trkpt>
      <trkpt lat="44.17416" lon="5.09349">
        <ele>433.69</ele>
        <time>2017-09-18T09:11:25Z</time>
      </trkpt>
      <trkpt lat="44.17422" lon="5.09353">
        <ele>431.77</ele>
        <time>2017-09-18T09:11:43Z</time>
      </trkpt>
      <trkpt lat="44.17436" lon="5.09354">
        <ele>431.77</ele>
        <time>2017-09-18T09:11:58Z</time>
      </trkpt>
      <trkpt lat="44.17453" lon="5.09345">
        <ele>431.77</ele>
        <time>2017-09-18T09:12:17Z</time>
      </trkpt>
      <trkpt lat="44.17469" lon="5.09338">
        <ele>431.77</ele>
        <time>2017-09-18T09:12:33Z</time>
      </trkpt>
      <trkpt lat="44.17484" lon="5.09325">
        <ele>432.73</ele>
        <time>2017-09-18T09:12:48Z</time>
      </trkpt>
      <trkpt lat="44.17496" lon="5.09313">
        <ele>433.69</ele>
        <time>2017-09-18T09:13:04Z</time>
      </trkpt>
      <trkpt lat="44.17509" lon="5.09303">
        <ele>436.1</ele>
        <time>2017-09-18T09:13:22Z</time>
      </trkpt>
      <trkpt lat="44.17518" lon="5.093">
        <ele>438.02</ele>
        <time>2017-09-18T09:13:35Z</time>
      </trkpt>
      <trkpt lat="44.17524" lon="5.09293">
        <ele>439.94</ele>
        <time>2017-09-18T09:13:49Z</time>
      </trkpt>
      <trkpt lat="44.17537" lon="5.09284">
        <ele>441.38</ele>
        <time>2017-09-18T09:14:06Z</time>
      </trkpt>
      <trkpt lat="44.17549" lon="5.09299">
        <ele>441.86</ele>
        <time>2017-09-18T09:14:23Z</time>
      </trkpt>
      <trkpt lat="44.17549" lon="5.09303">
        <ele>441.86</ele>
        <time>2017-09-18T09:14:41Z</time>
      </trkpt>
      <trkpt lat="44.1755" lon="5.09302">
        <ele>441.86</ele>
        <time>2017-09-18T09:15:09Z</time>
      </trkpt>
      <trkpt lat="44.17551" lon="5.093">
        <ele>441.86</ele>
        <time>2017-09-18T09:15:26Z</time>
      </trkpt>
      <trkpt lat="44.17557" lon="5.09318">
        <ele>441.86</ele>
        <time>2017-09-18T09:15:43Z</time>
      </trkpt>
      <trkpt lat="44.17559" lon="5.09329">
        <ele>441.86</ele>
        <time>2017-09-18T09:16:02Z</time>
      </trkpt>
      <trkpt lat="44.17567" lon="5.09348">
        <ele>442.82</ele>
        <time>2017-09-18T09:16:18Z</time>
      </trkpt>
      <trkpt lat="44.1758" lon="5.09366">
        <ele>444.27</ele>
        <time>2017-09-18T09:16:36Z</time>
      </trkpt>
      <trkpt lat="44.17598" lon="5.09373">
        <ele>444.27</ele>
        <time>2017-09-18T09:16:54Z</time>
      </trkpt>
      <trkpt lat="44.17616" lon="5.09382">
        <ele>445.71</ele>
        <time>2017-09-18T09:17:13Z</time>
      </trkpt>
      <trkpt lat="44.17632" lon="5.09389">
        <ele>447.15</ele>
        <time>2017-09-18T09:17:29Z</time>
      </trkpt>
      <trkpt lat="44.17647" lon="5.09399">
        <ele>449.07</ele>
        <time>2017-09-18T09:17:45Z</time>
      </trkpt>
      <trkpt lat="44.17661" lon="5.09405">
        <ele>451.48</ele>
        <time>2017-09-18T09:18:01Z</time>
      </trkpt>
      <trkpt lat="44.17678" lon="5.09413">
        <ele>453.4</ele>
        <time>2017-09-18T09:18:20Z</time>
      </trkpt>
      <trkpt lat="44.17693" lon="5.09422">
        <ele>455.8</ele>
        <time>2017-09-18T09:18:37Z</time>
      </trkpt>
      <trkpt lat="44.1771" lon="5.09432">
        <ele>458.69</ele>
        <time>2017-09-18T09:18:57Z</time>
      </trkpt>
      <trkpt lat="44.17726" lon="5.09442">
        <ele>461.09</ele>
        <time>2017-09-18T09:19:15Z</time>
      </trkpt>
      <trkpt lat="44.17741" lon="5.09455">
        <ele>462.53</ele>
        <time>2017-09-18T09:19:33Z</time>
      </trkpt>
      <trkpt lat="44.17752" lon="5.0947">
        <ele>464.45</ele>
        <time>2017-09-18T09:19:50Z</time>
      </trkpt>
      <trkpt lat="44.17763" lon="5.09482">
        <ele>466.38</ele>
        <time>2017-09-18T09:20:06Z</time>
      </trkpt>
      <trkpt lat="44.17778" lon="5.09491">
        <ele>466.86</ele>
        <time>2017-09-18T09:20:25Z</time>
      </trkpt>
      <trkpt lat="44.17778" lon="5.0949">
        <ele>466.86</ele>
        <time>2017-09-18T09:20:39Z</time>
      </trkpt>
      <trkpt lat="44.1778" lon="5.09493">
        <ele>466.86</ele>
        <time>2017-09-18T09:20:51Z</time>
      </trkpt>
      <trkpt lat="44.1778" lon="5.09493">
        <ele>466.86</ele>
        <time>2017-09-18T09:21:09Z</time>
      </trkpt>
      <trkpt lat="44.17781" lon="5.09494">
        <ele>466.86</ele>
        <time>2017-09-18T09:21:41Z</time>
      </trkpt>
      <trkpt lat="44.17781" lon="5.09492">
        <ele>466.86</ele>
        <time>2017-09-18T09:22:11Z</time>
      </trkpt>
      <trkpt lat="44.17783" lon="5.09491">
        <ele>466.86</ele>
        <time>2017-09-18T09:22:36Z</time>
      </trkpt>
      <trkpt lat="44.17786" lon="5.09492">
        <ele>466.86</ele>
        <time>2017-09-18T09:23:14Z</time>
      </trkpt>
      <trkpt lat="44.17783" lon="5.09491">
        <ele>466.86</ele>
        <time>2017-09-18T09:23:40Z</time>
      </trkpt>
      <trkpt lat="44.17782" lon="5.09491">
        <ele>467.34</ele>
        <time>2017-09-18T09:24:08Z</time>
      </trkpt>
      <trkpt lat="44.17794" lon="5.09506">
        <ele>468.78</ele>
        <time>2017-09-18T09:24:26Z</time>
      </trkpt>
      <trkpt lat="44.17807" lon="5.09526">
        <ele>470.7</ele>
        <time>2017-09-18T09:24:47Z</time>
      </trkpt>
      <trkpt lat="44.17809" lon="5.09536">
        <ele>470.7</ele>
        <time>2017-09-18T09:24:53Z</time>
      </trkpt>
      <trkpt lat="44.17823" lon="5.09562">
        <ele>470.7</ele>
        <time>2017-09-18T09:25:16Z</time>
      </trkpt>
      <trkpt lat="44.17828" lon="5.09586">
        <ele>470.7</ele>
        <time>2017-09-18T09:25:32Z</time>
      </trkpt>
      <trkpt lat="44.1784" lon="5.09611">
        <ele>470.7</ele>
        <time>2017-09-18T09:25:52Z</time>
      </trkpt>
      <trkpt lat="44.17861" lon="5.09623">
        <ele>470.7</ele>
        <time>2017-09-18T09:26:11Z</time>
      </trkpt>
      <trkpt lat="44.17881" lon="5.09636">
        <ele>470.7</ele>
        <time>2017-09-18T09:26:31Z</time>
      </trkpt>
      <trkpt lat="44.17902" lon="5.09646">
        <ele>470.7</ele>
        <time>2017-09-18T09:26:50Z</time>
      </trkpt>
      <trkpt lat="44.17923" lon="5.09657">
        <ele>471.66</ele>
        <time>2017-09-18T09:27:11Z</time>
      </trkpt>
      <trkpt lat="44.17926" lon="5.09655">
        <ele>472.14</ele>
        <time>2017-09-18T09:27:28Z</time>
      </trkpt>
      <trkpt lat="44.17928" lon="5.09655">
        <ele>468.78</ele>
        <time>2017-09-18T09:27:37Z</time>
      </trkpt>
      <trkpt lat="44.17928" lon="5.09655">
        <ele>475.99</ele>
        <time>2017-09-18T09:27:38Z</time>
      </trkpt>
      <trkpt lat="44.17927" lon="5.09655">
        <ele>472.14</ele>
        <time>2017-09-18T09:27:39Z</time>
      </trkpt>
      <trkpt lat="44.17929" lon="5.09652">
        <ele>472.63</ele>
        <time>2017-09-18T09:28:02Z</time>
      </trkpt>
      <trkpt lat="44.17943" lon="5.09635">
        <ele>472.63</ele>
        <time>2017-09-18T09:28:21Z</time>
      </trkpt>
      <trkpt lat="44.1796" lon="5.09615">
        <ele>473.59</ele>
        <time>2017-09-18T09:28:44Z</time>
      </trkpt>
      <trkpt lat="44.17976" lon="5.09592">
        <ele>475.03</ele>
        <time>2017-09-18T09:29:07Z</time>
      </trkpt>
      <trkpt lat="44.17988" lon="5.09577">
        <ele>476.47</ele>
        <time>2017-09-18T09:29:23Z</time>
      </trkpt>
      <trkpt lat="44.17993" lon="5.09567">
        <ele>476.95</ele>
        <time>2017-09-18T09:29:39Z</time>
      </trkpt>
      <trkpt lat="44.17994" lon="5.09567">
        <ele>476.95</ele>
        <time>2017-09-18T09:30:03Z</time>
      </trkpt>
      <trkpt lat="44.18001" lon="5.09556">
        <ele>477.43</ele>
        <time>2017-09-18T09:30:22Z</time>
      </trkpt>
      <trkpt lat="44.18013" lon="5.09539">
        <ele>477.91</ele>
        <time>2017-09-18T09:30:39Z</time>
      </trkpt>
      <trkpt lat="44.18024" lon="5.09521">
        <ele>477.43</ele>
        <time>2017-09-18T09:30:58Z</time>
      </trkpt>
      <trkpt lat="44.18024" lon="5.0952">
        <ele>480.8</ele>
        <time>2017-09-18T09:30:59Z</time>
      </trkpt>
      <trkpt lat="44.18026" lon="5.09518">
        <ele>481.28</ele>
        <time>2017-09-18T09:31:02Z</time>
      </trkpt>
      <trkpt lat="44.18027" lon="5.09518">
        <ele>479.35</ele>
        <time>2017-09-18T09:31:03Z</time>
      </trkpt>
      <trkpt lat="44.18028" lon="5.09518">
        <ele>479.35</ele>
        <time>2017-09-18T09:31:21Z</time>
      </trkpt>
      <trkpt lat="44.18036" lon="5.09514">
        <ele>479.35</ele>
        <time>2017-09-18T09:31:38Z</time>
      </trkpt>
      <trkpt lat="44.18047" lon="5.09499">
        <ele>481.76</ele>
        <time>2017-09-18T09:31:56Z</time>
      </trkpt>
      <trkpt lat="44.1805" lon="5.09488">
        <ele>483.2</ele>
        <time>2017-09-18T09:32:08Z</time>
      </trkpt>
      <trkpt lat="44.18054" lon="5.09469">
        <ele>483.68</ele>
        <time>2017-09-18T09:32:25Z</time>
      </trkpt>
      <trkpt lat="44.18059" lon="5.09449">
        <ele>483.68</ele>
        <time>2017-09-18T09:32:40Z</time>
      </trkpt>
      <trkpt lat="44.18059" lon="5.09425">
        <ele>484.16</ele>
        <time>2017-09-18T09:32:57Z</time>
      </trkpt>
      <trkpt lat="44.18053" lon="5.09402">
        <ele>485.6</ele>
        <time>2017-09-18T09:33:14Z</time>
      </trkpt>
      <trkpt lat="44.18049" lon="5.09389">
        <ele>487.53</ele>
        <time>2017-09-18T09:33:29Z</time>
      </trkpt>
      <trkpt lat="44.18048" lon="5.09373">
        <ele>488.97</ele>
        <time>2017-09-18T09:33:45Z</time>
      </trkpt>
      <trkpt lat="44.18047" lon="5.09357">
        <ele>490.41</ele>
        <time>2017-09-18T09:34:00Z</time>
      </trkpt>
      <trkpt lat="44.18049" lon="5.0934">
        <ele>492.81</ele>
        <time>2017-09-18T09:34:15Z</time>
      </trkpt>
      <trkpt lat="44.18055" lon="5.09328">
        <ele>495.22</ele>
        <time>2017-09-18T09:34:33Z</time>
      </trkpt>
      <trkpt lat="44.18055" lon="5.09322">
        <ele>497.14</ele>
        <time>2017-09-18T09:34:48Z</time>
      </trkpt>
      <trkpt lat="44.18058" lon="5.09312">
        <ele>499.06</ele>
        <time>2017-09-18T09:35:03Z</time>
      </trkpt>
      <trkpt lat="44.18064" lon="5.09301">
        <ele>501.46</ele>
        <time>2017-09-18T09:35:20Z</time>
      </trkpt>
      <trkpt lat="44.18072" lon="5.09296">
        <ele>502.91</ele>
        <time>2017-09-18T09:35:35Z</time>
      </trkpt>
      <trkpt lat="44.18075" lon="5.09295">
        <ele>502.91</ele>
        <time>2017-09-18T09:35:40Z</time>
      </trkpt>
      <trkpt lat="44.18075" lon="5.09293">
        <ele>502.91</ele>
        <time>2017-09-18T09:35:55Z</time>
      </trkpt>
      <trkpt lat="44.18075" lon="5.09293">
        <ele>502.91</ele>
        <time>2017-09-18T09:36:14Z</time>
      </trkpt>
      <trkpt lat="44.18078" lon="5.0929">
        <ele>502.91</ele>
        <time>2017-09-18T09:36:28Z</time>
      </trkpt>
      <trkpt lat="44.18092" lon="5.09287">
        <ele>500.02</ele>
        <time>2017-09-18T09:36:44Z</time>
      </trkpt>
      <trkpt lat="44.18104" lon="5.09283">
        <ele>498.58</ele>
        <time>2017-09-18T09:37:00Z</time>
      </trkpt>
      <trkpt lat="44.18116" lon="5.09278">
        <ele>497.14</ele>
        <time>2017-09-18T09:37:15Z</time>
      </trkpt>
      <trkpt lat="44.18127" lon="5.09264">
        <ele>495.22</ele>
        <time>2017-09-18T09:37:34Z</time>
      </trkpt>
      <trkpt lat="44.18135" lon="5.09251">
        <ele>492.81</ele>
        <time>2017-09-18T09:37:49Z</time>
      </trkpt>
      <trkpt lat="44.18146" lon="5.09243">
        <ele>491.37</ele>
        <time>2017-09-18T09:38:05Z</time>
      </trkpt>
      <trkpt lat="44.18158" lon="5.09234">
        <ele>490.41</ele>
        <time>2017-09-18T09:38:21Z</time>
      </trkpt>
      <trkpt lat="44.18168" lon="5.09216">
        <ele>490.41</ele>
        <time>2017-09-18T09:38:36Z</time>
      </trkpt>
      <trkpt lat="44.1817" lon="5.09214">
        <ele>489.45</ele>
        <time>2017-09-18T09:38:39Z</time>
      </trkpt>
      <trkpt lat="44.18172" lon="5.09207">
        <ele>489.45</ele>
        <time>2017-09-18T09:38:54Z</time>
      </trkpt>
      <trkpt lat="44.18177" lon="5.09198">
        <ele>488.49</ele>
        <time>2017-09-18T09:39:15Z</time>
      </trkpt>
      <trkpt lat="44.18192" lon="5.09182">
        <ele>488.01</ele>
        <time>2017-09-18T09:39:32Z</time>
      </trkpt>
      <trkpt lat="44.18197" lon="5.09176">
        <ele>488.01</ele>
        <time>2017-09-18T09:39:47Z</time>
      </trkpt>
      <trkpt lat="44.18199" lon="5.09173">
        <ele>488.01</ele>
        <time>2017-09-18T09:40:07Z</time>
      </trkpt>
      <trkpt lat="44.18202" lon="5.09174">
        <ele>489.45</ele>
        <time>2017-09-18T09:40:35Z</time>
      </trkpt>
      <trkpt lat="44.18201" lon="5.09173">
        <ele>488.49</ele>
        <time>2017-09-18T09:40:48Z</time>
      </trkpt>
      <trkpt lat="44.18201" lon="5.09174">
        <ele>488.97</ele>
        <time>2017-09-18T09:41:18Z</time>
      </trkpt>
      <trkpt lat="44.18203" lon="5.09176">
        <ele>488.49</ele>
        <time>2017-09-18T09:41:40Z</time>
      </trkpt>
      <trkpt lat="44.18203" lon="5.09177">
        <ele>488.49</ele>
        <time>2017-09-18T09:42:07Z</time>
      </trkpt>
      <trkpt lat="44.18203" lon="5.09178">
        <ele>488.49</ele>
        <time>2017-09-18T09:42:38Z</time>
      </trkpt>
      <trkpt lat="44.18202" lon="5.09176">
        <ele>488.97</ele>
        <time>2017-09-18T09:43:02Z</time>
      </trkpt>
      <trkpt lat="44.18202" lon="5.09173">
        <ele>488.97</ele>
        <time>2017-09-18T09:43:30Z</time>
      </trkpt>
      <trkpt lat="44.18204" lon="5.09154">
        <ele>488.97</ele>
        <time>2017-09-18T09:43:46Z</time>
      </trkpt>
      <trkpt lat="44.18204" lon="5.09131">
        <ele>490.41</ele>
        <time>2017-09-18T09:44:02Z</time>
      </trkpt>
      <trkpt lat="44.18196" lon="5.09108">
        <ele>491.37</ele>
        <time>2017-09-18T09:44:22Z</time>
      </trkpt>
      <trkpt lat="44.18194" lon="5.09104">
        <ele>491.37</ele>
        <time>2017-09-18T09:44:27Z</time>
      </trkpt>
      <trkpt lat="44.18194" lon="5.09092">
        <ele>492.33</ele>
        <time>2017-09-18T09:44:41Z</time>
      </trkpt>
      <trkpt lat="44.18193" lon="5.09074">
        <ele>493.77</ele>
        <time>2017-09-18T09:44:57Z</time>
      </trkpt>
      <trkpt lat="44.18192" lon="5.09073">
        <ele>493.77</ele>
        <time>2017-09-18T09:44:58Z</time>
      </trkpt>
      <trkpt lat="44.18188" lon="5.0905">
        <ele>492.33</ele>
        <time>2017-09-18T09:45:15Z</time>
      </trkpt>
      <trkpt lat="44.18186" lon="5.0903">
        <ele>491.37</ele>
        <time>2017-09-18T09:45:31Z</time>
      </trkpt>
      <trkpt lat="44.18185" lon="5.09012">
        <ele>489.93</ele>
        <time>2017-09-18T09:45:47Z</time>
      </trkpt>
      <trkpt lat="44.18185" lon="5.08988">
        <ele>489.45</ele>
        <time>2017-09-18T09:46:06Z</time>
      </trkpt>
      <trkpt lat="44.18186" lon="5.08978">
        <ele>488.97</ele>
        <time>2017-09-18T09:46:15Z</time>
      </trkpt>
      <trkpt lat="44.18186" lon="5.08955">
        <ele>488.97</ele>
        <time>2017-09-18T09:46:31Z</time>
      </trkpt>
      <trkpt lat="44.18186" lon="5.08944">
        <ele>489.93</ele>
        <time>2017-09-18T09:46:39Z</time>
      </trkpt>
      <trkpt lat="44.18195" lon="5.08925">
        <ele>491.85</ele>
        <time>2017-09-18T09:46:57Z</time>
      </trkpt>
      <trkpt lat="44.18202" lon="5.0891">
        <ele>494.74</ele>
        <time>2017-09-18T09:47:16Z</time>
      </trkpt>
      <trkpt lat="44.18204" lon="5.08891">
        <ele>496.66</ele>
        <time>2017-09-18T09:47:33Z</time>
      </trkpt>
      <trkpt lat="44.1821" lon="5.08878">
        <ele>499.06</ele>
        <time>2017-09-18T09:47:50Z</time>
      </trkpt>
      <trkpt lat="44.18212" lon="5.08864">
        <ele>500.98</ele>
        <time>2017-09-18T09:48:05Z</time>
      </trkpt>
      <trkpt lat="44.18216" lon="5.08851">
        <ele>502.91</ele>
        <time>2017-09-18T09:48:20Z</time>
      </trkpt>
      <trkpt lat="44.18215" lon="5.08838">
        <ele>503.87</ele>
        <time>2017-09-18T09:48:35Z</time>
      </trkpt>
      <trkpt lat="44.18216" lon="5.08823">
        <ele>503.87</ele>
        <time>2017-09-18T09:48:50Z</time>
      </trkpt>
      <trkpt lat="44.1822" lon="5.08811">
        <ele>504.35</ele>
        <time>2017-09-18T09:49:03Z</time>
      </trkpt>
      <trkpt lat="44.18227" lon="5.08804">
        <ele>506.27</ele>
        <time>2017-09-18T09:49:18Z</time>
      </trkpt>
      <trkpt lat="44.18239" lon="5.08792">
        <ele>507.23</ele>
        <time>2017-09-18T09:49:33Z</time>
      </trkpt>
      <trkpt lat="44.18249" lon="5.08776">
        <ele>508.19</ele>
        <time>2017-09-18T09:49:50Z</time>
      </trkpt>
      <trkpt lat="44.18254" lon="5.08763">
        <ele>510.6</ele>
        <time>2017-09-18T09:50:05Z</time>
      </trkpt>
      <trkpt lat="44.18259" lon="5.08753">
        <ele>513</ele>
        <time>2017-09-18T09:50:21Z</time>
      </trkpt>
      <trkpt lat="44.1826" lon="5.08737">
        <ele>514.92</ele>
        <time>2017-09-18T09:50:37Z</time>
      </trkpt>
      <trkpt lat="44.18261" lon="5.08715">
        <ele>516.85</ele>
        <time>2017-09-18T09:50:54Z</time>
      </trkpt>
      <trkpt lat="44.18261" lon="5.08699">
        <ele>519.73</ele>
        <time>2017-09-18T09:51:11Z</time>
      </trkpt>
      <trkpt lat="44.18263" lon="5.08688">
        <ele>521.65</ele>
        <time>2017-09-18T09:51:26Z</time>
      </trkpt>
      <trkpt lat="44.18266" lon="5.08673">
        <ele>524.54</ele>
        <time>2017-09-18T09:51:42Z</time>
      </trkpt>
      <trkpt lat="44.18267" lon="5.08665">
        <ele>526.46</ele>
        <time>2017-09-18T09:51:57Z</time>
      </trkpt>
      <trkpt lat="44.18268" lon="5.08656">
        <ele>528.38</ele>
        <time>2017-09-18T09:52:11Z</time>
      </trkpt>
      <trkpt lat="44.18269" lon="5.08647">
        <ele>530.3</ele>
        <time>2017-09-18T09:52:25Z</time>
      </trkpt>
      <trkpt lat="44.18272" lon="5.08633">
        <ele>532.71</ele>
        <time>2017-09-18T09:52:41Z</time>
      </trkpt>
      <trkpt lat="44.18277" lon="5.08621">
        <ele>534.63</ele>
        <time>2017-09-18T09:52:57Z</time>
      </trkpt>
      <trkpt lat="44.18274" lon="5.08607">
        <ele>535.59</ele>
        <time>2017-09-18T09:53:11Z</time>
      </trkpt>
      <trkpt lat="44.18275" lon="5.08589">
        <ele>537.51</ele>
        <time>2017-09-18T09:53:28Z</time>
      </trkpt>
      <trkpt lat="44.18275" lon="5.08576">
        <ele>538.48</ele>
        <time>2017-09-18T09:53:40Z</time>
      </trkpt>
      <trkpt lat="44.18273" lon="5.08566">
        <ele>538.96</ele>
        <time>2017-09-18T09:53:55Z</time>
      </trkpt>
      <trkpt lat="44.18273" lon="5.08564">
        <ele>539.44</ele>
        <time>2017-09-18T09:54:12Z</time>
      </trkpt>
      <trkpt lat="44.18274" lon="5.08563">
        <ele>537.99</ele>
        <time>2017-09-18T09:54:16Z</time>
      </trkpt>
      <trkpt lat="44.18273" lon="5.08564">
        <ele>537.51</ele>
        <time>2017-09-18T09:54:32Z</time>
      </trkpt>
      <trkpt lat="44.18272" lon="5.08566">
        <ele>538.96</ele>
        <time>2017-09-18T09:55:06Z</time>
      </trkpt>
      <trkpt lat="44.18276" lon="5.08566">
        <ele>538.96</ele>
        <time>2017-09-18T09:55:36Z</time>
      </trkpt>
      <trkpt lat="44.18275" lon="5.08567">
        <ele>538.96</ele>
        <time>2017-09-18T09:55:56Z</time>
      </trkpt>
      <trkpt lat="44.18275" lon="5.08565">
        <ele>538.48</ele>
        <time>2017-09-18T09:56:15Z</time>
      </trkpt>
      <trkpt lat="44.18277" lon="5.08566">
        <ele>538.48</ele>
        <time>2017-09-18T09:56:44Z</time>
      </trkpt>
      <trkpt lat="44.18275" lon="5.08568">
        <ele>538.48</ele>
        <time>2017-09-18T09:57:20Z</time>
      </trkpt>
      <trkpt lat="44.18275" lon="5.08566">
        <ele>539.92</ele>
        <time>2017-09-18T09:57:49Z</time>
      </trkpt>
      <trkpt lat="44.18275" lon="5.08566">
        <ele>539.92</ele>
        <time>2017-09-18T09:58:16Z</time>
      </trkpt>
      <trkpt lat="44.18274" lon="5.08566">
        <ele>539.92</ele>
        <time>2017-09-18T09:58:31Z</time>
      </trkpt>
      <trkpt lat="44.18274" lon="5.08564">
        <ele>539.92</ele>
        <time>2017-09-18T09:58:48Z</time>
      </trkpt>
      <trkpt lat="44.18273" lon="5.08566">
        <ele>539.44</ele>
        <time>2017-09-18T09:59:06Z</time>
      </trkpt>
      <trkpt lat="44.18278" lon="5.08568">
        <ele>539.44</ele>
        <time>2017-09-18T09:59:33Z</time>
      </trkpt>
      <trkpt lat="44.18277" lon="5.08565">
        <ele>539.44</ele>
        <time>2017-09-18T09:59:59Z</time>
      </trkpt>
      <trkpt lat="44.18265" lon="5.08548">
        <ele>539.44</ele>
        <time>2017-09-18T10:00:17Z</time>
      </trkpt>
      <trkpt lat="44.1826" lon="5.08529">
        <ele>540.88</ele>
        <time>2017-09-18T10:00:35Z</time>
      </trkpt>
      <trkpt lat="44.18257" lon="5.08505">
        <ele>540.88</ele>
        <time>2017-09-18T10:00:53Z</time>
      </trkpt>
      <trkpt lat="44.18257" lon="5.08481">
        <ele>541.84</ele>
        <time>2017-09-18T10:01:11Z</time>
      </trkpt>
      <trkpt lat="44.1826" lon="5.08465">
        <ele>543.28</ele>
        <time>2017-09-18T10:01:28Z</time>
      </trkpt>
      <trkpt lat="44.18263" lon="5.08449">
        <ele>543.76</ele>
        <time>2017-09-18T10:01:41Z</time>
      </trkpt>
      <trkpt lat="44.18271" lon="5.08433">
        <ele>545.69</ele>
        <time>2017-09-18T10:01:58Z</time>
      </trkpt>
      <trkpt lat="44.18277" lon="5.08422">
        <ele>547.13</ele>
        <time>2017-09-18T10:02:13Z</time>
      </trkpt>
      <trkpt lat="44.18287" lon="5.0841">
        <ele>549.53</ele>
        <time>2017-09-18T10:02:29Z</time>
      </trkpt>
      <trkpt lat="44.18289" lon="5.08393">
        <ele>551.45</ele>
        <time>2017-09-18T10:02:44Z</time>
      </trkpt>
      <trkpt lat="44.18297" lon="5.08379">
        <ele>553.38</ele>
        <time>2017-09-18T10:02:59Z</time>
      </trkpt>
      <trkpt lat="44.18309" lon="5.08367">
        <ele>553.86</ele>
        <time>2017-09-18T10:03:16Z</time>
      </trkpt>
      <trkpt lat="44.1832" lon="5.08346">
        <ele>554.82</ele>
        <time>2017-09-18T10:03:33Z</time>
      </trkpt>
      <trkpt lat="44.18329" lon="5.08332">
        <ele>556.26</ele>
        <time>2017-09-18T10:03:51Z</time>
      </trkpt>
      <trkpt lat="44.1834" lon="5.08322">
        <ele>558.18</ele>
        <time>2017-09-18T10:04:08Z</time>
      </trkpt>
      <trkpt lat="44.18351" lon="5.08309">
        <ele>560.11</ele>
        <time>2017-09-18T10:04:24Z</time>
      </trkpt>
      <trkpt lat="44.18361" lon="5.08296">
        <ele>561.55</ele>
        <time>2017-09-18T10:04:41Z</time>
      </trkpt>
      <trkpt lat="44.18367" lon="5.08279">
        <ele>562.99</ele>
        <time>2017-09-18T10:04:58Z</time>
      </trkpt>
      <trkpt lat="44.18371" lon="5.08269">
        <ele>564.43</ele>
        <time>2017-09-18T10:05:16Z</time>
      </trkpt>
      <trkpt lat="44.18374" lon="5.08261">
        <ele>565.39</ele>
        <time>2017-09-18T10:05:33Z</time>
      </trkpt>
      <trkpt lat="44.18379" lon="5.08246">
        <ele>567.8</ele>
        <time>2017-09-18T10:05:51Z</time>
      </trkpt>
      <trkpt lat="44.18391" lon="5.08236">
        <ele>569.24</ele>
        <time>2017-09-18T10:06:08Z</time>
      </trkpt>
      <trkpt lat="44.184" lon="5.08226">
        <ele>571.64</ele>
        <time>2017-09-18T10:06:26Z</time>
      </trkpt>
      <trkpt lat="44.18407" lon="5.08216">
        <ele>574.04</ele>
        <time>2017-09-18T10:06:41Z</time>
      </trkpt>
      <trkpt lat="44.18416" lon="5.08207">
        <ele>576.45</ele>
        <time>2017-09-18T10:06:58Z</time>
      </trkpt>
      <trkpt lat="44.18421" lon="5.08198">
        <ele>580.29</ele>
        <time>2017-09-18T10:07:13Z</time>
      </trkpt>
      <trkpt lat="44.18421" lon="5.08197">
        <ele>580.29</ele>
        <time>2017-09-18T10:07:14Z</time>
      </trkpt>
      <trkpt lat="44.18432" lon="5.0819">
        <ele>581.73</ele>
        <time>2017-09-18T10:07:33Z</time>
      </trkpt>
      <trkpt lat="44.18438" lon="5.08178">
        <ele>583.66</ele>
        <time>2017-09-18T10:07:50Z</time>
      </trkpt>
      <trkpt lat="44.18443" lon="5.08169">
        <ele>585.58</ele>
        <time>2017-09-18T10:08:04Z</time>
      </trkpt>
      <trkpt lat="44.18446" lon="5.08159">
        <ele>587.5</ele>
        <time>2017-09-18T10:08:18Z</time>
      </trkpt>
      <trkpt lat="44.18446" lon="5.08146">
        <ele>589.43</ele>
        <time>2017-09-18T10:08:34Z</time>
      </trkpt>
      <trkpt lat="44.1845" lon="5.08136">
        <ele>590.87</ele>
        <time>2017-09-18T10:08:49Z</time>
      </trkpt>
      <trkpt lat="44.18454" lon="5.0813">
        <ele>591.83</ele>
        <time>2017-09-18T10:09:07Z</time>
      </trkpt>
      <trkpt lat="44.18461" lon="5.08114">
        <ele>593.27</ele>
        <time>2017-09-18T10:09:24Z</time>
      </trkpt>
      <trkpt lat="44.18461" lon="5.08108">
        <ele>594.23</ele>
        <time>2017-09-18T10:09:43Z</time>
      </trkpt>
      <trkpt lat="44.18463" lon="5.0811">
        <ele>590.39</ele>
        <time>2017-09-18T10:09:58Z</time>
      </trkpt>
      <trkpt lat="44.18463" lon="5.0811">
        <ele>592.79</ele>
        <time>2017-09-18T10:09:59Z</time>
      </trkpt>
      <trkpt lat="44.18462" lon="5.08111">
        <ele>593.27</ele>
        <time>2017-09-18T10:10:03Z</time>
      </trkpt>
      <trkpt lat="44.18461" lon="5.0811">
        <ele>593.27</ele>
        <time>2017-09-18T10:10:30Z</time>
      </trkpt>
      <trkpt lat="44.1846" lon="5.0811">
        <ele>589.43</ele>
        <time>2017-09-18T10:10:47Z</time>
      </trkpt>
      <trkpt lat="44.1846" lon="5.0811">
        <ele>599.04</ele>
        <time>2017-09-18T10:10:48Z</time>
      </trkpt>
      <trkpt lat="44.18461" lon="5.0811">
        <ele>594.71</ele>
        <time>2017-09-18T10:10:49Z</time>
      </trkpt>
      <trkpt lat="44.18461" lon="5.0811">
        <ele>594.23</ele>
        <time>2017-09-18T10:10:51Z</time>
      </trkpt>
      <trkpt lat="44.18462" lon="5.08113">
        <ele>594.23</ele>
        <time>2017-09-18T10:11:11Z</time>
      </trkpt>
      <trkpt lat="44.18463" lon="5.08113">
        <ele>594.23</ele>
        <time>2017-09-18T10:11:36Z</time>
      </trkpt>
      <trkpt lat="44.18465" lon="5.0811">
        <ele>594.23</ele>
        <time>2017-09-18T10:11:54Z</time>
      </trkpt>
      <trkpt lat="44.18467" lon="5.08103">
        <ele>594.23</ele>
        <time>2017-09-18T10:12:10Z</time>
      </trkpt>
      <trkpt lat="44.1847" lon="5.08086">
        <ele>594.23</ele>
        <time>2017-09-18T10:12:26Z</time>
      </trkpt>
      <trkpt lat="44.18478" lon="5.08076">
        <ele>592.79</ele>
        <time>2017-09-18T10:12:41Z</time>
      </trkpt>
      <trkpt lat="44.1849" lon="5.08064">
        <ele>591.83</ele>
        <time>2017-09-18T10:12:59Z</time>
      </trkpt>
      <trkpt lat="44.18502" lon="5.08054">
        <ele>591.83</ele>
        <time>2017-09-18T10:13:16Z</time>
      </trkpt>
      <trkpt lat="44.18515" lon="5.08041">
        <ele>590.39</ele>
        <time>2017-09-18T10:13:33Z</time>
      </trkpt>
      <trkpt lat="44.18529" lon="5.08024">
        <ele>588.95</ele>
        <time>2017-09-18T10:13:50Z</time>
      </trkpt>
      <trkpt lat="44.18536" lon="5.08009">
        <ele>588.46</ele>
        <time>2017-09-18T10:14:06Z</time>
      </trkpt>
      <trkpt lat="44.18539" lon="5.07986">
        <ele>588.46</ele>
        <time>2017-09-18T10:14:24Z</time>
      </trkpt>
      <trkpt lat="44.18541" lon="5.07959">
        <ele>588.46</ele>
        <time>2017-09-18T10:14:42Z</time>
      </trkpt>
      <trkpt lat="44.1855" lon="5.07942">
        <ele>587.5</ele>
        <time>2017-09-18T10:15:00Z</time>
      </trkpt>
      <trkpt lat="44.18557" lon="5.07926">
        <ele>587.5</ele>
        <time>2017-09-18T10:15:14Z</time>
      </trkpt>
      <trkpt lat="44.1856" lon="5.07901">
        <ele>587.5</ele>
        <time>2017-09-18T10:15:33Z</time>
      </trkpt>
      <trkpt lat="44.18565" lon="5.0787">
        <ele>587.5</ele>
        <time>2017-09-18T10:15:55Z</time>
      </trkpt>
      <trkpt lat="44.18566" lon="5.0786">
        <ele>588.95</ele>
        <time>2017-09-18T10:16:03Z</time>
      </trkpt>
      <trkpt lat="44.18568" lon="5.07837">
        <ele>589.91</ele>
        <time>2017-09-18T10:16:20Z</time>
      </trkpt>
      <trkpt lat="44.1857" lon="5.07816">
        <ele>591.83</ele>
        <time>2017-09-18T10:16:38Z</time>
      </trkpt>
      <trkpt lat="44.18569" lon="5.078">
        <ele>593.75</ele>
        <time>2017-09-18T10:16:54Z</time>
      </trkpt>
      <trkpt lat="44.18569" lon="5.07787">
        <ele>596.15</ele>
        <time>2017-09-18T10:17:10Z</time>
      </trkpt>
      <trkpt lat="44.18569" lon="5.07772">
        <ele>598.08</ele>
        <time>2017-09-18T10:17:27Z</time>
      </trkpt>
      <trkpt lat="44.18575" lon="5.0776">
        <ele>598.08</ele>
        <time>2017-09-18T10:17:43Z</time>
      </trkpt>
      <trkpt lat="44.18581" lon="5.07742">
        <ele>598.56</ele>
        <time>2017-09-18T10:18:01Z</time>
      </trkpt>
      <trkpt lat="44.18586" lon="5.07717">
        <ele>598.56</ele>
        <time>2017-09-18T10:18:21Z</time>
      </trkpt>
      <trkpt lat="44.18586" lon="5.07715">
        <ele>595.67</ele>
        <time>2017-09-18T10:18:22Z</time>
      </trkpt>
      <trkpt lat="44.18586" lon="5.07714">
        <ele>601.44</ele>
        <time>2017-09-18T10:18:23Z</time>
      </trkpt>
      <trkpt lat="44.18593" lon="5.07698">
        <ele>600.96</ele>
        <time>2017-09-18T10:18:41Z</time>
      </trkpt>
      <trkpt lat="44.18604" lon="5.07688">
        <ele>602.4</ele>
        <time>2017-09-18T10:18:56Z</time>
      </trkpt>
      <trkpt lat="44.18615" lon="5.07683">
        <ele>603.36</ele>
        <time>2017-09-18T10:19:11Z</time>
      </trkpt>
      <trkpt lat="44.18624" lon="5.07671">
        <ele>604.33</ele>
        <time>2017-09-18T10:19:27Z</time>
      </trkpt>
      <trkpt lat="44.18626" lon="5.07662">
        <ele>605.29</ele>
        <time>2017-09-18T10:19:40Z</time>
      </trkpt>
      <trkpt lat="44.18628" lon="5.07657">
        <ele>604.33</ele>
        <time>2017-09-18T10:19:55Z</time>
      </trkpt>
      <trkpt lat="44.18632" lon="5.07646">
        <ele>602.4</ele>
        <time>2017-09-18T10:20:11Z</time>
      </trkpt>
      <trkpt lat="44.18635" lon="5.07639">
        <ele>601.44</ele>
        <time>2017-09-18T10:20:24Z</time>
      </trkpt>
      <trkpt lat="44.18637" lon="5.07628">
        <ele>600.48</ele>
        <time>2017-09-18T10:20:39Z</time>
      </trkpt>
      <trkpt lat="44.18638" lon="5.07626">
        <ele>600</ele>
        <time>2017-09-18T10:20:59Z</time>
      </trkpt>
      <trkpt lat="44.18638" lon="5.07625">
        <ele>596.15</ele>
        <time>2017-09-18T10:21:04Z</time>
      </trkpt>
      <trkpt lat="44.18638" lon="5.07625">
        <ele>605.77</ele>
        <time>2017-09-18T10:21:05Z</time>
      </trkpt>
      <trkpt lat="44.18638" lon="5.07624">
        <ele>600</ele>
        <time>2017-09-18T10:21:06Z</time>
      </trkpt>
      <trkpt lat="44.18637" lon="5.07622">
        <ele>600</ele>
        <time>2017-09-18T10:21:27Z</time>
      </trkpt>
      <trkpt lat="44.1864" lon="5.07611">
        <ele>599.52</ele>
        <time>2017-09-18T10:21:45Z</time>
      </trkpt>
      <trkpt lat="44.18643" lon="5.07591">
        <ele>597.6</ele>
        <time>2017-09-18T10:22:03Z</time>
      </trkpt>
      <trkpt lat="44.18646" lon="5.07563">
        <ele>596.64</ele>
        <time>2017-09-18T10:22:23Z</time>
      </trkpt>
      <trkpt lat="44.18649" lon="5.07539">
        <ele>594.23</ele>
        <time>2017-09-18T10:22:41Z</time>
      </trkpt>
      <trkpt lat="44.18647" lon="5.07522">
        <ele>592.31</ele>
        <time>2017-09-18T10:22:55Z</time>
      </trkpt>
      <trkpt lat="44.18647" lon="5.07497">
        <ele>591.83</ele>
        <time>2017-09-18T10:23:14Z</time>
      </trkpt>
      <trkpt lat="44.18645" lon="5.07473">
        <ele>590.87</ele>
        <time>2017-09-18T10:23:32Z</time>
      </trkpt>
      <trkpt lat="44.18639" lon="5.07453">
        <ele>590.87</ele>
        <time>2017-09-18T10:23:48Z</time>
      </trkpt>
      <trkpt lat="44.1863" lon="5.07428">
        <ele>590.39</ele>
        <time>2017-09-18T10:24:08Z</time>
      </trkpt>
      <trkpt lat="44.18628" lon="5.07408">
        <ele>588.95</ele>
        <time>2017-09-18T10:24:26Z</time>
      </trkpt>
      <trkpt lat="44.18625" lon="5.07388">
        <ele>586.54</ele>
        <time>2017-09-18T10:24:43Z</time>
      </trkpt>
      <trkpt lat="44.18624" lon="5.07366">
        <ele>584.62</ele>
        <time>2017-09-18T10:25:01Z</time>
      </trkpt>
      <trkpt lat="44.1863" lon="5.07345">
        <ele>582.7</ele>
        <time>2017-09-18T10:25:20Z</time>
      </trkpt>
      <trkpt lat="44.18632" lon="5.07334">
        <ele>583.18</ele>
        <time>2017-09-18T10:25:30Z</time>
      </trkpt>
      <trkpt lat="44.1863" lon="5.07332">
        <ele>583.18</ele>
        <time>2017-09-18T10:25:48Z</time>
      </trkpt>
      <trkpt lat="44.1863" lon="5.07321">
        <ele>583.18</ele>
        <time>2017-09-18T10:26:02Z</time>
      </trkpt>
      <trkpt lat="44.18635" lon="5.07315">
        <ele>583.18</ele>
        <time>2017-09-18T10:26:20Z</time>
      </trkpt>
      <trkpt lat="44.18635" lon="5.07314">
        <ele>582.22</ele>
        <time>2017-09-18T10:26:40Z</time>
      </trkpt>
      <trkpt lat="44.18634" lon="5.07316">
        <ele>583.66</ele>
        <time>2017-09-18T10:26:56Z</time>
      </trkpt>
      <trkpt lat="44.18636" lon="5.07316">
        <ele>582.22</ele>
        <time>2017-09-18T10:27:13Z</time>
      </trkpt>
      <trkpt lat="44.18638" lon="5.07315">
        <ele>581.73</ele>
        <time>2017-09-18T10:27:42Z</time>
      </trkpt>
      <trkpt lat="44.1864" lon="5.07318">
        <ele>581.73</ele>
        <time>2017-09-18T10:28:07Z</time>
      </trkpt>
      <trkpt lat="44.18637" lon="5.07317">
        <ele>581.73</ele>
        <time>2017-09-18T10:28:50Z</time>
      </trkpt>
      <trkpt lat="44.18636" lon="5.07312">
        <ele>582.22</ele>
        <time>2017-09-18T10:29:16Z</time>
      </trkpt>
      <trkpt lat="44.18635" lon="5.0731">
        <ele>582.22</ele>
        <time>2017-09-18T10:29:59Z</time>
      </trkpt>
      <trkpt lat="44.18636" lon="5.07311">
        <ele>582.22</ele>
        <time>2017-09-18T10:30:38Z</time>
      </trkpt>
      <trkpt lat="44.18634" lon="5.07313">
        <ele>582.22</ele>
        <time>2017-09-18T10:31:14Z</time>
      </trkpt>
      <trkpt lat="44.18633" lon="5.07315">
        <ele>582.7</ele>
        <time>2017-09-18T10:31:44Z</time>
      </trkpt>
      <trkpt lat="44.18632" lon="5.07316">
        <ele>582.7</ele>
        <time>2017-09-18T10:32:13Z</time>
      </trkpt>
      <trkpt lat="44.1863" lon="5.07315">
        <ele>582.7</ele>
        <time>2017-09-18T10:32:46Z</time>
      </trkpt>
      <trkpt lat="44.18631" lon="5.07314">
        <ele>582.7</ele>
        <time>2017-09-18T10:33:20Z</time>
      </trkpt>
      <trkpt lat="44.18633" lon="5.07313">
        <ele>583.18</ele>
        <time>2017-09-18T10:33:47Z</time>
      </trkpt>
      <trkpt lat="44.18633" lon="5.07312">
        <ele>583.18</ele>
        <time>2017-09-18T10:34:26Z</time>
      </trkpt>
      <trkpt lat="44.18635" lon="5.07314">
        <ele>583.18</ele>
        <time>2017-09-18T10:35:02Z</time>
      </trkpt>
      <trkpt lat="44.18635" lon="5.07316">
        <ele>583.66</ele>
        <time>2017-09-18T10:35:38Z</time>
      </trkpt>
      <trkpt lat="44.18635" lon="5.07314">
        <ele>583.66</ele>
        <time>2017-09-18T10:36:14Z</time>
      </trkpt>
      <trkpt lat="44.18635" lon="5.07314">
        <ele>583.66</ele>
        <time>2017-09-18T10:36:47Z</time>
      </trkpt>
      <trkpt lat="44.18633" lon="5.07315">
        <ele>583.66</ele>
        <time>2017-09-18T10:37:20Z</time>
      </trkpt>
      <trkpt lat="44.18636" lon="5.07315">
        <ele>583.66</ele>
        <time>2017-09-18T10:37:51Z</time>
      </trkpt>
      <trkpt lat="44.18634" lon="5.07321">
        <ele>583.66</ele>
        <time>2017-09-18T10:38:26Z</time>
      </trkpt>
      <trkpt lat="44.18635" lon="5.07317">
        <ele>584.14</ele>
        <time>2017-09-18T10:39:03Z</time>
      </trkpt>
      <trkpt lat="44.18635" lon="5.07315">
        <ele>584.14</ele>
        <time>2017-09-18T10:39:44Z</time>
      </trkpt>
      <trkpt lat="44.18637" lon="5.07314">
        <ele>584.14</ele>
        <time>2017-09-18T10:40:24Z</time>
      </trkpt>
      <trkpt lat="44.18636" lon="5.07313">
        <ele>584.14</ele>
        <time>2017-09-18T10:41:05Z</time>
      </trkpt>
      <trkpt lat="44.18634" lon="5.07315">
        <ele>584.62</ele>
        <time>2017-09-18T10:41:48Z</time>
      </trkpt>
      <trkpt lat="44.18632" lon="5.07314">
        <ele>584.62</ele>
        <time>2017-09-18T10:42:27Z</time>
      </trkpt>
      <trkpt lat="44.18635" lon="5.07314">
        <ele>584.62</ele>
        <time>2017-09-18T10:43:03Z</time>
      </trkpt>
      <trkpt lat="44.18634" lon="5.07314">
        <ele>584.62</ele>
        <time>2017-09-18T10:43:37Z</time>
      </trkpt>
      <trkpt lat="44.18634" lon="5.07315">
        <ele>585.1</ele>
        <time>2017-09-18T10:44:08Z</time>
      </trkpt>
      <trkpt lat="44.18635" lon="5.07313">
        <ele>585.1</ele>
        <time>2017-09-18T10:44:49Z</time>
      </trkpt>
      <trkpt lat="44.18636" lon="5.07312">
        <ele>585.1</ele>
        <time>2017-09-18T10:45:21Z</time>
      </trkpt>
      <trkpt lat="44.18638" lon="5.07314">
        <ele>585.1</ele>
        <time>2017-09-18T10:45:55Z</time>
      </trkpt>
      <trkpt lat="44.18636" lon="5.07312">
        <ele>585.1</ele>
        <time>2017-09-18T10:46:27Z</time>
      </trkpt>
      <trkpt lat="44.18633" lon="5.07317">
        <ele>585.58</ele>
        <time>2017-09-18T10:47:01Z</time>
      </trkpt>
      <trkpt lat="44.18631" lon="5.07321">
        <ele>586.54</ele>
        <time>2017-09-18T10:47:34Z</time>
      </trkpt>
      <trkpt lat="44.18629" lon="5.07315">
        <ele>586.54</ele>
        <time>2017-09-18T10:48:07Z</time>
      </trkpt>
      <trkpt lat="44.18632" lon="5.0731">
        <ele>587.02</ele>
        <time>2017-09-18T10:48:42Z</time>
      </trkpt>
      <trkpt lat="44.18633" lon="5.0731">
        <ele>587.5</ele>
        <time>2017-09-18T10:49:13Z</time>
      </trkpt>
      <trkpt lat="44.18635" lon="5.07312">
        <ele>587.5</ele>
        <time>2017-09-18T10:49:45Z</time>
      </trkpt>
      <trkpt lat="44.18634" lon="5.07311">
        <ele>587.5</ele>
        <time>2017-09-18T10:50:15Z</time>
      </trkpt>
      <trkpt lat="44.18636" lon="5.07313">
        <ele>587.5</ele>
        <time>2017-09-18T10:50:50Z</time>
      </trkpt>
      <trkpt lat="44.18636" lon="5.07313">
        <ele>587.5</ele>
        <time>2017-09-18T10:51:34Z</time>
      </trkpt>
      <trkpt lat="44.18635" lon="5.07314">
        <ele>587.5</ele>
        <time>2017-09-18T10:52:12Z</time>
      </trkpt>
      <trkpt lat="44.18636" lon="5.07316">
        <ele>587.5</ele>
        <time>2017-09-18T10:52:55Z</time>
      </trkpt>
      <trkpt lat="44.18633" lon="5.07316">
        <ele>587.5</ele>
        <time>2017-09-18T10:53:32Z</time>
      </trkpt>
      <trkpt lat="44.18635" lon="5.07314">
        <ele>587.5</ele>
        <time>2017-09-18T10:54:01Z</time>
      </trkpt>
      <trkpt lat="44.18634" lon="5.07315">
        <ele>587.98</ele>
        <time>2017-09-18T10:54:39Z</time>
      </trkpt>
      <trkpt lat="44.18635" lon="5.07312">
        <ele>588.46</ele>
        <time>2017-09-18T10:55:25Z</time>
      </trkpt>
      <trkpt lat="44.18635" lon="5.07311">
        <ele>588.46</ele>
        <time>2017-09-18T10:56:04Z</time>
      </trkpt>
      <trkpt lat="44.18635" lon="5.07312">
        <ele>588.46</ele>
        <time>2017-09-18T10:56:41Z</time>
      </trkpt>
      <trkpt lat="44.18635" lon="5.07316">
        <ele>588.46</ele>
        <time>2017-09-18T10:57:11Z</time>
      </trkpt>
      <trkpt lat="44.18633" lon="5.07315">
        <ele>588.95</ele>
        <time>2017-09-18T10:57:45Z</time>
      </trkpt>
      <trkpt lat="44.18631" lon="5.07316">
        <ele>588.95</ele>
        <time>2017-09-18T10:58:18Z</time>
      </trkpt>
      <trkpt lat="44.18631" lon="5.0732">
        <ele>589.43</ele>
        <time>2017-09-18T10:59:00Z</time>
      </trkpt>
      <trkpt lat="44.18632" lon="5.0732">
        <ele>589.43</ele>
        <time>2017-09-18T10:59:40Z</time>
      </trkpt>
      <trkpt lat="44.18632" lon="5.0732">
        <ele>589.91</ele>
        <time>2017-09-18T11:00:21Z</time>
      </trkpt>
      <trkpt lat="44.18632" lon="5.07318">
        <ele>590.39</ele>
        <time>2017-09-18T11:01:01Z</time>
      </trkpt>
      <trkpt lat="44.18632" lon="5.07311">
        <ele>590.39</ele>
        <time>2017-09-18T11:01:46Z</time>
      </trkpt>
      <trkpt lat="44.18632" lon="5.07313">
        <ele>590.39</ele>
        <time>2017-09-18T11:02:31Z</time>
      </trkpt>
      <trkpt lat="44.18633" lon="5.07312">
        <ele>590.87</ele>
        <time>2017-09-18T11:03:10Z</time>
      </trkpt>
      <trkpt lat="44.18633" lon="5.07309">
        <ele>590.87</ele>
        <time>2017-09-18T11:03:46Z</time>
      </trkpt>
      <trkpt lat="44.18633" lon="5.07311">
        <ele>590.87</ele>
        <time>2017-09-18T11:04:19Z</time>
      </trkpt>
      <trkpt lat="44.18635" lon="5.07316">
        <ele>590.87</ele>
        <time>2017-09-18T11:05:00Z</time>
      </trkpt>
      <trkpt lat="44.18634" lon="5.07321">
        <ele>590.87</ele>
        <time>2017-09-18T11:05:42Z</time>
      </trkpt>
      <trkpt lat="44.18633" lon="5.07323">
        <ele>590.87</ele>
        <time>2017-09-18T11:06:18Z</time>
      </trkpt>
      <trkpt lat="44.18635" lon="5.07322">
        <ele>590.87</ele>
        <time>2017-09-18T11:06:51Z</time>
      </trkpt>
      <trkpt lat="44.18637" lon="5.07314">
        <ele>591.35</ele>
        <time>2017-09-18T11:07:18Z</time>
      </trkpt>
      <trkpt lat="44.18637" lon="5.07317">
        <ele>591.35</ele>
        <time>2017-09-18T11:07:41Z</time>
      </trkpt>
      <trkpt lat="44.18636" lon="5.07323">
        <ele>591.35</ele>
        <time>2017-09-18T11:08:09Z</time>
      </trkpt>
      <trkpt lat="44.18639" lon="5.07326">
        <ele>590.87</ele>
        <time>2017-09-18T11:08:49Z</time>
      </trkpt>
      <trkpt lat="44.18638" lon="5.07325">
        <ele>590.87</ele>
        <time>2017-09-18T11:09:22Z</time>
      </trkpt>
      <trkpt lat="44.18637" lon="5.07324">
        <ele>591.83</ele>
        <time>2017-09-18T11:09:36Z</time>
      </trkpt>
      <trkpt lat="44.18638" lon="5.0732">
        <ele>592.31</ele>
        <time>2017-09-18T11:09:49Z</time>
      </trkpt>
      <trkpt lat="44.18638" lon="5.07318">
        <ele>592.31</ele>
        <time>2017-09-18T11:10:11Z</time>
      </trkpt>
      <trkpt lat="44.18638" lon="5.07319">
        <ele>586.06</ele>
        <time>2017-09-18T11:10:20Z</time>
      </trkpt>
      <trkpt lat="44.18637" lon="5.0732">
        <ele>598.08</ele>
        <time>2017-09-18T11:10:21Z</time>
      </trkpt>
      <trkpt lat="44.18637" lon="5.0732">
        <ele>592.31</ele>
        <time>2017-09-18T11:10:22Z</time>
      </trkpt>
      <trkpt lat="44.18637" lon="5.07323">
        <ele>591.35</ele>
        <time>2017-09-18T11:10:42Z</time>
      </trkpt>
      <trkpt lat="44.18634" lon="5.0733">
        <ele>591.35</ele>
        <time>2017-09-18T11:10:58Z</time>
      </trkpt>
      <trkpt lat="44.18633" lon="5.07335">
        <ele>591.35</ele>
        <time>2017-09-18T11:11:14Z</time>
      </trkpt>
      <trkpt lat="44.18627" lon="5.07347">
        <ele>589.43</ele>
        <time>2017-09-18T11:11:31Z</time>
      </trkpt>
      <trkpt lat="44.1862" lon="5.07364">
        <ele>588.46</ele>
        <time>2017-09-18T11:11:49Z</time>
      </trkpt>
      <trkpt lat="44.1861" lon="5.07378">
        <ele>586.54</ele>
        <time>2017-09-18T11:12:08Z</time>
      </trkpt>
      <trkpt lat="44.18603" lon="5.0739">
        <ele>584.14</ele>
        <time>2017-09-18T11:12:25Z</time>
      </trkpt>
      <trkpt lat="44.18593" lon="5.07404">
        <ele>580.77</ele>
        <time>2017-09-18T11:12:44Z</time>
      </trkpt>
      <trkpt lat="44.18587" lon="5.07409">
        <ele>579.33</ele>
        <time>2017-09-18T11:13:00Z</time>
      </trkpt>
      <trkpt lat="44.18575" lon="5.07413">
        <ele>577.41</ele>
        <time>2017-09-18T11:13:16Z</time>
      </trkpt>
      <trkpt lat="44.18562" lon="5.07415">
        <ele>575.01</ele>
        <time>2017-09-18T11:13:35Z</time>
      </trkpt>
      <trkpt lat="44.18557" lon="5.07416">
        <ele>573.08</ele>
        <time>2017-09-18T11:13:50Z</time>
      </trkpt>
      <trkpt lat="44.1855" lon="5.07415">
        <ele>571.16</ele>
        <time>2017-09-18T11:14:04Z</time>
      </trkpt>
      <trkpt lat="44.18542" lon="5.07414">
        <ele>568.76</ele>
        <time>2017-09-18T11:14:22Z</time>
      </trkpt>
      <trkpt lat="44.18533" lon="5.07412">
        <ele>566.35</ele>
        <time>2017-09-18T11:14:37Z</time>
      </trkpt>
      <trkpt lat="44.1853" lon="5.07415">
        <ele>565.87</ele>
        <time>2017-09-18T11:14:53Z</time>
      </trkpt>
      <trkpt lat="44.18531" lon="5.07425">
        <ele>565.39</ele>
        <time>2017-09-18T11:15:12Z</time>
      </trkpt>
      <trkpt lat="44.18532" lon="5.07436">
        <ele>562.51</ele>
        <time>2017-09-18T11:15:27Z</time>
      </trkpt>
      <trkpt lat="44.18534" lon="5.07447">
        <ele>560.59</ele>
        <time>2017-09-18T11:15:44Z</time>
      </trkpt>
      <trkpt lat="44.18537" lon="5.07454">
        <ele>558.18</ele>
        <time>2017-09-18T11:15:59Z</time>
      </trkpt>
      <trkpt lat="44.18542" lon="5.07463">
        <ele>556.26</ele>
        <time>2017-09-18T11:16:13Z</time>
      </trkpt>
      <trkpt lat="44.18545" lon="5.07478">
        <ele>554.34</ele>
        <time>2017-09-18T11:16:28Z</time>
      </trkpt>
      <trkpt lat="44.18536" lon="5.07494">
        <ele>552.9</ele>
        <time>2017-09-18T11:16:44Z</time>
      </trkpt>
      <trkpt lat="44.18526" lon="5.07506">
        <ele>550.97</ele>
        <time>2017-09-18T11:16:59Z</time>
      </trkpt>
      <trkpt lat="44.18515" lon="5.07514">
        <ele>549.05</ele>
        <time>2017-09-18T11:17:14Z</time>
      </trkpt>
      <trkpt lat="44.18501" lon="5.07525">
        <ele>547.13</ele>
        <time>2017-09-18T11:17:31Z</time>
      </trkpt>
      <trkpt lat="44.18488" lon="5.0753">
        <ele>545.69</ele>
        <time>2017-09-18T11:17:48Z</time>
      </trkpt>
      <trkpt lat="44.18474" lon="5.07532">
        <ele>544.24</ele>
        <time>2017-09-18T11:18:04Z</time>
      </trkpt>
      <trkpt lat="44.18457" lon="5.07535">
        <ele>542.8</ele>
        <time>2017-09-18T11:18:24Z</time>
      </trkpt>
      <trkpt lat="44.18445" lon="5.0755">
        <ele>541.84</ele>
        <time>2017-09-18T11:18:43Z</time>
      </trkpt>
      <trkpt lat="44.18435" lon="5.07566">
        <ele>540.88</ele>
        <time>2017-09-18T11:19:02Z</time>
      </trkpt>
      <trkpt lat="44.18421" lon="5.0758">
        <ele>539.92</ele>
        <time>2017-09-18T11:19:20Z</time>
      </trkpt>
      <trkpt lat="44.18404" lon="5.07591">
        <ele>539.44</ele>
        <time>2017-09-18T11:19:39Z</time>
      </trkpt>
      <trkpt lat="44.18387" lon="5.07601">
        <ele>537.51</ele>
        <time>2017-09-18T11:19:59Z</time>
      </trkpt>
      <trkpt lat="44.18372" lon="5.07611">
        <ele>535.59</ele>
        <time>2017-09-18T11:20:18Z</time>
      </trkpt>
      <trkpt lat="44.18362" lon="5.07624">
        <ele>533.67</ele>
        <time>2017-09-18T11:20:36Z</time>
      </trkpt>
      <trkpt lat="44.18358" lon="5.07636">
        <ele>531.75</ele>
        <time>2017-09-18T11:20:50Z</time>
      </trkpt>
      <trkpt lat="44.18355" lon="5.07647">
        <ele>529.82</ele>
        <time>2017-09-18T11:21:04Z</time>
      </trkpt>
      <trkpt lat="44.18351" lon="5.07658">
        <ele>527.9</ele>
        <time>2017-09-18T11:21:20Z</time>
      </trkpt>
      <trkpt lat="44.18346" lon="5.07672">
        <ele>525.5</ele>
        <time>2017-09-18T11:21:37Z</time>
      </trkpt>
      <trkpt lat="44.18343" lon="5.07681">
        <ele>524.54</ele>
        <time>2017-09-18T11:21:50Z</time>
      </trkpt>
      <trkpt lat="44.1834" lon="5.07686">
        <ele>524.54</ele>
        <time>2017-09-18T11:22:05Z</time>
      </trkpt>
      <trkpt lat="44.18398" lon="5.07724">
        <ele>515.88</ele>
        <time>2017-09-18T11:22:41Z</time>
      </trkpt>
      <trkpt lat="44.18372" lon="5.07712">
        <ele>515.88</ele>
        <time>2017-09-18T11:22:54Z</time>
      </trkpt>
      <trkpt lat="44.18343" lon="5.07692">
        <ele>515.88</ele>
        <time>2017-09-18T11:23:11Z</time>
      </trkpt>
      <trkpt lat="44.18334" lon="5.07687">
        <ele>515.88</ele>
        <time>2017-09-18T11:23:23Z</time>
      </trkpt>
      <trkpt lat="44.18325" lon="5.07694">
        <ele>515.4</ele>
        <time>2017-09-18T11:23:42Z</time>
      </trkpt>
      <trkpt lat="44.18318" lon="5.07702">
        <ele>514.44</ele>
        <time>2017-09-18T11:23:59Z</time>
      </trkpt>
      <trkpt lat="44.18312" lon="5.07715">
        <ele>514.44</ele>
        <time>2017-09-18T11:24:15Z</time>
      </trkpt>
      <trkpt lat="44.18307" lon="5.07725">
        <ele>512.52</ele>
        <time>2017-09-18T11:24:30Z</time>
      </trkpt>
      <trkpt lat="44.18303" lon="5.07736">
        <ele>510.6</ele>
        <time>2017-09-18T11:24:46Z</time>
      </trkpt>
      <trkpt lat="44.18306" lon="5.07749">
        <ele>508.67</ele>
        <time>2017-09-18T11:25:04Z</time>
      </trkpt>
      <trkpt lat="44.18313" lon="5.07769">
        <ele>507.23</ele>
        <time>2017-09-18T11:25:21Z</time>
      </trkpt>
      <trkpt lat="44.18305" lon="5.07784">
        <ele>505.79</ele>
        <time>2017-09-18T11:25:38Z</time>
      </trkpt>
      <trkpt lat="44.18294" lon="5.07794">
        <ele>504.83</ele>
        <time>2017-09-18T11:25:55Z</time>
      </trkpt>
      <trkpt lat="44.18285" lon="5.078">
        <ele>503.39</ele>
        <time>2017-09-18T11:26:08Z</time>
      </trkpt>
      <trkpt lat="44.18267" lon="5.07807">
        <ele>502.91</ele>
        <time>2017-09-18T11:26:25Z</time>
      </trkpt>
      <trkpt lat="44.18246" lon="5.07811">
        <ele>502.43</ele>
        <time>2017-09-18T11:26:44Z</time>
      </trkpt>
      <trkpt lat="44.18227" lon="5.0781">
        <ele>500.5</ele>
        <time>2017-09-18T11:27:01Z</time>
      </trkpt>
      <trkpt lat="44.1821" lon="5.07809">
        <ele>498.58</ele>
        <time>2017-09-18T11:27:20Z</time>
      </trkpt>
      <trkpt lat="44.18202" lon="5.07809">
        <ele>497.62</ele>
        <time>2017-09-18T11:27:28Z</time>
      </trkpt>
      <trkpt lat="44.18185" lon="5.07806">
        <ele>496.18</ele>
        <time>2017-09-18T11:27:46Z</time>
      </trkpt>
      <trkpt lat="44.18177" lon="5.07808">
        <ele>495.7</ele>
        <time>2017-09-18T11:27:56Z</time>
      </trkpt>
      <trkpt lat="44.18156" lon="5.07814">
        <ele>493.77</ele>
        <time>2017-09-18T11:28:17Z</time>
      </trkpt>
      <trkpt lat="44.18142" lon="5.07818">
        <ele>492.33</ele>
        <time>2017-09-18T11:28:33Z</time>
      </trkpt>
      <trkpt lat="44.18119" lon="5.07814">
        <ele>492.33</ele>
        <time>2017-09-18T11:28:56Z</time>
      </trkpt>
      <trkpt lat="44.18104" lon="5.07813">
        <ele>492.33</ele>
        <time>2017-09-18T11:29:13Z</time>
      </trkpt>
      <trkpt lat="44.18083" lon="5.07812">
        <ele>492.33</ele>
        <time>2017-09-18T11:29:32Z</time>
      </trkpt>
      <trkpt lat="44.18063" lon="5.07814">
        <ele>491.85</ele>
        <time>2017-09-18T11:29:51Z</time>
      </trkpt>
      <trkpt lat="44.18049" lon="5.07819">
        <ele>491.85</ele>
        <time>2017-09-18T11:30:07Z</time>
      </trkpt>
      <trkpt lat="44.18031" lon="5.07821">
        <ele>490.89</ele>
        <time>2017-09-18T11:30:27Z</time>
      </trkpt>
      <trkpt lat="44.18023" lon="5.07827">
        <ele>490.89</ele>
        <time>2017-09-18T11:30:35Z</time>
      </trkpt>
      <trkpt lat="44.18012" lon="5.07855">
        <ele>490.41</ele>
        <time>2017-09-18T11:30:56Z</time>
      </trkpt>
      <trkpt lat="44.18009" lon="5.07871">
        <ele>489.45</ele>
        <time>2017-09-18T11:31:12Z</time>
      </trkpt>
      <trkpt lat="44.18007" lon="5.07878">
        <ele>489.45</ele>
        <time>2017-09-18T11:31:29Z</time>
      </trkpt>
      <trkpt lat="44.18006" lon="5.07885">
        <ele>488.97</ele>
        <time>2017-09-18T11:31:49Z</time>
      </trkpt>
      <trkpt lat="44.18006" lon="5.07906">
        <ele>487.53</ele>
        <time>2017-09-18T11:32:09Z</time>
      </trkpt>
      <trkpt lat="44.18009" lon="5.07924">
        <ele>486.08</ele>
        <time>2017-09-18T11:32:25Z</time>
      </trkpt>
      <trkpt lat="44.18018" lon="5.07948">
        <ele>485.6</ele>
        <time>2017-09-18T11:32:44Z</time>
      </trkpt>
      <trkpt lat="44.1802" lon="5.0798">
        <ele>484.16</ele>
        <time>2017-09-18T11:33:06Z</time>
      </trkpt>
      <trkpt lat="44.18019" lon="5.07998">
        <ele>483.2</ele>
        <time>2017-09-18T11:33:22Z</time>
      </trkpt>
      <trkpt lat="44.18018" lon="5.08014">
        <ele>481.76</ele>
        <time>2017-09-18T11:33:37Z</time>
      </trkpt>
      <trkpt lat="44.18018" lon="5.08019">
        <ele>477.43</ele>
        <time>2017-09-18T11:33:47Z</time>
      </trkpt>
      <trkpt lat="44.18017" lon="5.08018">
        <ele>481.28</ele>
        <time>2017-09-18T11:33:48Z</time>
      </trkpt>
      <trkpt lat="44.18018" lon="5.0802">
        <ele>480.8</ele>
        <time>2017-09-18T11:34:02Z</time>
      </trkpt>
      <trkpt lat="44.18018" lon="5.08019">
        <ele>479.35</ele>
        <time>2017-09-18T11:34:12Z</time>
      </trkpt>
      <trkpt lat="44.18018" lon="5.08019">
        <ele>481.28</ele>
        <time>2017-09-18T11:34:26Z</time>
      </trkpt>
      <trkpt lat="44.18018" lon="5.08017">
        <ele>481.76</ele>
        <time>2017-09-18T11:34:44Z</time>
      </trkpt>
      <trkpt lat="44.18017" lon="5.0802">
        <ele>481.76</ele>
        <time>2017-09-18T11:35:01Z</time>
      </trkpt>
      <trkpt lat="44.18017" lon="5.08025">
        <ele>481.28</ele>
        <time>2017-09-18T11:35:14Z</time>
      </trkpt>
      <trkpt lat="44.18017" lon="5.08042">
        <ele>479.84</ele>
        <time>2017-09-18T11:35:28Z</time>
      </trkpt>
      <trkpt lat="44.18018" lon="5.08058">
        <ele>479.35</ele>
        <time>2017-09-18T11:35:43Z</time>
      </trkpt>
      <trkpt lat="44.18023" lon="5.08079">
        <ele>477.43</ele>
        <time>2017-09-18T11:36:02Z</time>
      </trkpt>
      <trkpt lat="44.18032" lon="5.08098">
        <ele>475.51</ele>
        <time>2017-09-18T11:36:20Z</time>
      </trkpt>
      <trkpt lat="44.18039" lon="5.08109">
        <ele>475.51</ele>
        <time>2017-09-18T11:36:35Z</time>
      </trkpt>
      <trkpt lat="44.18036" lon="5.08128">
        <ele>475.03</ele>
        <time>2017-09-18T11:36:51Z</time>
      </trkpt>
      <trkpt lat="44.18035" lon="5.08151">
        <ele>474.07</ele>
        <time>2017-09-18T11:37:08Z</time>
      </trkpt>
      <trkpt lat="44.18037" lon="5.08179">
        <ele>474.07</ele>
        <time>2017-09-18T11:37:27Z</time>
      </trkpt>
      <trkpt lat="44.18038" lon="5.08204">
        <ele>473.59</ele>
        <time>2017-09-18T11:37:46Z</time>
      </trkpt>
      <trkpt lat="44.18032" lon="5.08223">
        <ele>472.14</ele>
        <time>2017-09-18T11:38:04Z</time>
      </trkpt>
      <trkpt lat="44.18033" lon="5.08237">
        <ele>470.7</ele>
        <time>2017-09-18T11:38:18Z</time>
      </trkpt>
      <trkpt lat="44.18038" lon="5.08252">
        <ele>469.26</ele>
        <time>2017-09-18T11:38:33Z</time>
      </trkpt>
      <trkpt lat="44.18046" lon="5.0828">
        <ele>468.78</ele>
        <time>2017-09-18T11:38:50Z</time>
      </trkpt>
      <trkpt lat="44.18047" lon="5.083">
        <ele>468.78</ele>
        <time>2017-09-18T11:39:06Z</time>
      </trkpt>
      <trkpt lat="44.18032" lon="5.08318">
        <ele>470.22</ele>
        <time>2017-09-18T11:39:27Z</time>
      </trkpt>
      <trkpt lat="44.18019" lon="5.0833">
        <ele>471.66</ele>
        <time>2017-09-18T11:39:44Z</time>
      </trkpt>
      <trkpt lat="44.18002" lon="5.08344">
        <ele>472.14</ele>
        <time>2017-09-18T11:40:04Z</time>
      </trkpt>
      <trkpt lat="44.17996" lon="5.0835">
        <ele>472.14</ele>
        <time>2017-09-18T11:40:11Z</time>
      </trkpt>
      <trkpt lat="44.17984" lon="5.08363">
        <ele>472.14</ele>
        <time>2017-09-18T11:40:27Z</time>
      </trkpt>
      <trkpt lat="44.17978" lon="5.08377">
        <ele>472.14</ele>
        <time>2017-09-18T11:40:40Z</time>
      </trkpt>
      <trkpt lat="44.17968" lon="5.08404">
        <ele>472.14</ele>
        <time>2017-09-18T11:40:57Z</time>
      </trkpt>
      <trkpt lat="44.1796" lon="5.08419">
        <ele>469.74</ele>
        <time>2017-09-18T11:41:13Z</time>
      </trkpt>
      <trkpt lat="44.17946" lon="5.08434">
        <ele>467.82</ele>
        <time>2017-09-18T11:41:28Z</time>
      </trkpt>
      <trkpt lat="44.17934" lon="5.08443">
        <ele>465.9</ele>
        <time>2017-09-18T11:41:45Z</time>
      </trkpt>
      <trkpt lat="44.1792" lon="5.0845">
        <ele>463.97</ele>
        <time>2017-09-18T11:42:02Z</time>
      </trkpt>
      <trkpt lat="44.17904" lon="5.08453">
        <ele>461.57</ele>
        <time>2017-09-18T11:42:20Z</time>
      </trkpt>
      <trkpt lat="44.17888" lon="5.08459">
        <ele>459.65</ele>
        <time>2017-09-18T11:42:37Z</time>
      </trkpt>
      <trkpt lat="44.17881" lon="5.08474">
        <ele>457.72</ele>
        <time>2017-09-18T11:42:53Z</time>
      </trkpt>
      <trkpt lat="44.17877" lon="5.08488">
        <ele>455.8</ele>
        <time>2017-09-18T11:43:10Z</time>
      </trkpt>
      <trkpt lat="44.17872" lon="5.08501">
        <ele>453.4</ele>
        <time>2017-09-18T11:43:28Z</time>
      </trkpt>
      <trkpt lat="44.17866" lon="5.08513">
        <ele>451.48</ele>
        <time>2017-09-18T11:43:44Z</time>
      </trkpt>
      <trkpt lat="44.17858" lon="5.08526">
        <ele>449.55</ele>
        <time>2017-09-18T11:44:01Z</time>
      </trkpt>
      <trkpt lat="44.17852" lon="5.08538">
        <ele>448.11</ele>
        <time>2017-09-18T11:44:16Z</time>
      </trkpt>
      <trkpt lat="44.1784" lon="5.08552">
        <ele>445.71</ele>
        <time>2017-09-18T11:44:34Z</time>
      </trkpt>
      <trkpt lat="44.17833" lon="5.0856">
        <ele>444.27</ele>
        <time>2017-09-18T11:44:48Z</time>
      </trkpt>
      <trkpt lat="44.17818" lon="5.08568">
        <ele>442.82</ele>
        <time>2017-09-18T11:45:04Z</time>
      </trkpt>
      <trkpt lat="44.17802" lon="5.08567">
        <ele>442.82</ele>
        <time>2017-09-18T11:45:21Z</time>
      </trkpt>
      <trkpt lat="44.17783" lon="5.08564">
        <ele>441.86</ele>
        <time>2017-09-18T11:45:38Z</time>
      </trkpt>
      <trkpt lat="44.17769" lon="5.08569">
        <ele>439.94</ele>
        <time>2017-09-18T11:45:52Z</time>
      </trkpt>
      <trkpt lat="44.17758" lon="5.08573">
        <ele>437.06</ele>
        <time>2017-09-18T11:46:07Z</time>
      </trkpt>
      <trkpt lat="44.17744" lon="5.08575">
        <ele>434.65</ele>
        <time>2017-09-18T11:46:25Z</time>
      </trkpt>
      <trkpt lat="44.17727" lon="5.08576">
        <ele>432.73</ele>
        <time>2017-09-18T11:46:44Z</time>
      </trkpt>
      <trkpt lat="44.17713" lon="5.08589">
        <ele>430.81</ele>
        <time>2017-09-18T11:47:01Z</time>
      </trkpt>
      <trkpt lat="44.17704" lon="5.08603">
        <ele>429.37</ele>
        <time>2017-09-18T11:47:17Z</time>
      </trkpt>
      <trkpt lat="44.17696" lon="5.08619">
        <ele>427.44</ele>
        <time>2017-09-18T11:47:33Z</time>
      </trkpt>
      <trkpt lat="44.17688" lon="5.08641">
        <ele>426</ele>
        <time>2017-09-18T11:47:50Z</time>
      </trkpt>
      <trkpt lat="44.17685" lon="5.08662">
        <ele>424.56</ele>
        <time>2017-09-18T11:48:09Z</time>
      </trkpt>
      <trkpt lat="44.17682" lon="5.0868">
        <ele>423.6</ele>
        <time>2017-09-18T11:48:24Z</time>
      </trkpt>
      <trkpt lat="44.17675" lon="5.08686">
        <ele>423.6</ele>
        <time>2017-09-18T11:48:39Z</time>
      </trkpt>
      <trkpt lat="44.17672" lon="5.08688">
        <ele>423.12</ele>
        <time>2017-09-18T11:48:56Z</time>
      </trkpt>
      <trkpt lat="44.17669" lon="5.0869">
        <ele>421.68</ele>
        <time>2017-09-18T11:49:12Z</time>
      </trkpt>
      <trkpt lat="44.17669" lon="5.08691">
        <ele>421.68</ele>
        <time>2017-09-18T11:49:36Z</time>
      </trkpt>
      <trkpt lat="44.17667" lon="5.08685">
        <ele>421.68</ele>
        <time>2017-09-18T11:49:51Z</time>
      </trkpt>
      <trkpt lat="44.17664" lon="5.08673">
        <ele>420.23</ele>
        <time>2017-09-18T11:50:16Z</time>
      </trkpt>
      <trkpt lat="44.17655" lon="5.08655">
        <ele>417.83</ele>
        <time>2017-09-18T11:50:35Z</time>
      </trkpt>
      <trkpt lat="44.17647" lon="5.0864">
        <ele>415.91</ele>
        <time>2017-09-18T11:50:53Z</time>
      </trkpt>
      <trkpt lat="44.1764" lon="5.0862">
        <ele>413.02</ele>
        <time>2017-09-18T11:51:10Z</time>
      </trkpt>
      <trkpt lat="44.17629" lon="5.08598">
        <ele>411.1</ele>
        <time>2017-09-18T11:51:32Z</time>
      </trkpt>
      <trkpt lat="44.17619" lon="5.08578">
        <ele>408.7</ele>
        <time>2017-09-18T11:51:52Z</time>
      </trkpt>
      <trkpt lat="44.17615" lon="5.08557">
        <ele>407.26</ele>
        <time>2017-09-18T11:52:10Z</time>
      </trkpt>
      <trkpt lat="44.17604" lon="5.08542">
        <ele>404.37</ele>
        <time>2017-09-18T11:52:29Z</time>
      </trkpt>
      <trkpt lat="44.17591" lon="5.08543">
        <ele>401.49</ele>
        <time>2017-09-18T11:52:46Z</time>
      </trkpt>
      <trkpt lat="44.17577" lon="5.08545">
        <ele>397.64</ele>
        <time>2017-09-18T11:53:04Z</time>
      </trkpt>
      <trkpt lat="44.17561" lon="5.08545">
        <ele>394.28</ele>
        <time>2017-09-18T11:53:23Z</time>
      </trkpt>
      <trkpt lat="44.17545" lon="5.08539">
        <ele>390.91</ele>
        <time>2017-09-18T11:53:42Z</time>
      </trkpt>
      <trkpt lat="44.17528" lon="5.08535">
        <ele>388.03</ele>
        <time>2017-09-18T11:54:01Z</time>
      </trkpt>
      <trkpt lat="44.17511" lon="5.08537">
        <ele>385.15</ele>
        <time>2017-09-18T11:54:20Z</time>
      </trkpt>
      <trkpt lat="44.17493" lon="5.08534">
        <ele>382.74</ele>
        <time>2017-09-18T11:54:38Z</time>
      </trkpt>
      <trkpt lat="44.17476" lon="5.0854">
        <ele>380.34</ele>
        <time>2017-09-18T11:54:57Z</time>
      </trkpt>
      <trkpt lat="44.17459" lon="5.0855">
        <ele>378.42</ele>
        <time>2017-09-18T11:55:18Z</time>
      </trkpt>
      <trkpt lat="44.17446" lon="5.08555">
        <ele>376.97</ele>
        <time>2017-09-18T11:55:31Z</time>
      </trkpt>
      <trkpt lat="44.17424" lon="5.08557">
        <ele>374.57</ele>
        <time>2017-09-18T11:55:53Z</time>
      </trkpt>
      <trkpt lat="44.17403" lon="5.08562">
        <ele>372.17</ele>
        <time>2017-09-18T11:56:15Z</time>
      </trkpt>
      <trkpt lat="44.17385" lon="5.08569">
        <ele>369.76</ele>
        <time>2017-09-18T11:56:35Z</time>
      </trkpt>
      <trkpt lat="44.1737" lon="5.08584">
        <ele>366.4</ele>
        <time>2017-09-18T11:56:56Z</time>
      </trkpt>
      <trkpt lat="44.17361" lon="5.086">
        <ele>364.48</ele>
        <time>2017-09-18T11:57:12Z</time>
      </trkpt>
      <trkpt lat="44.17346" lon="5.08608">
        <ele>363.52</ele>
        <time>2017-09-18T11:57:29Z</time>
      </trkpt>
      <trkpt lat="44.17323" lon="5.08617">
        <ele>363.52</ele>
        <time>2017-09-18T11:57:51Z</time>
      </trkpt>
      <trkpt lat="44.17298" lon="5.08622">
        <ele>364</ele>
        <time>2017-09-18T11:58:13Z</time>
      </trkpt>
      <trkpt lat="44.17278" lon="5.08627">
        <ele>364</ele>
        <time>2017-09-18T11:58:33Z</time>
      </trkpt>
      <trkpt lat="44.17256" lon="5.08632">
        <ele>364</ele>
        <time>2017-09-18T11:58:56Z</time>
      </trkpt>
      <trkpt lat="44.17249" lon="5.08631">
        <ele>363.52</ele>
        <time>2017-09-18T11:59:13Z</time>
      </trkpt>
      <trkpt lat="44.17236" lon="5.08634">
        <ele>361.11</ele>
        <time>2017-09-18T11:59:29Z</time>
      </trkpt>
      <trkpt lat="44.17227" lon="5.08638">
        <ele>361.11</ele>
        <time>2017-09-18T11:59:44Z</time>
      </trkpt>
      <trkpt lat="44.17224" lon="5.08639">
        <ele>360.63</ele>
        <time>2017-09-18T11:59:47Z</time>
      </trkpt>
      <trkpt lat="44.17206" lon="5.08649">
        <ele>359.67</ele>
        <time>2017-09-18T12:00:08Z</time>
      </trkpt>
      <trkpt lat="44.17197" lon="5.08644">
        <ele>359.19</ele>
        <time>2017-09-18T12:00:19Z</time>
      </trkpt>
      <trkpt lat="44.17179" lon="5.08623">
        <ele>358.23</ele>
        <time>2017-09-18T12:00:42Z</time>
      </trkpt>
      <trkpt lat="44.17158" lon="5.08603">
        <ele>357.27</ele>
        <time>2017-09-18T12:01:05Z</time>
      </trkpt>
      <trkpt lat="44.17151" lon="5.086">
        <ele>357.27</ele>
        <time>2017-09-18T12:01:12Z</time>
      </trkpt>
      <trkpt lat="44.17131" lon="5.08612">
        <ele>356.79</ele>
        <time>2017-09-18T12:01:32Z</time>
      </trkpt>
      <trkpt lat="44.17117" lon="5.08633">
        <ele>355.83</ele>
        <time>2017-09-18T12:01:52Z</time>
      </trkpt>
      <trkpt lat="44.17108" lon="5.08643">
        <ele>355.34</ele>
        <time>2017-09-18T12:02:04Z</time>
      </trkpt>
      <trkpt lat="44.17099" lon="5.08661">
        <ele>354.38</ele>
        <time>2017-09-18T12:02:19Z</time>
      </trkpt>
      <trkpt lat="44.17094" lon="5.08694">
        <ele>353.42</ele>
        <time>2017-09-18T12:02:40Z</time>
      </trkpt>
      <trkpt lat="44.17082" lon="5.0872">
        <ele>352.46</ele>
        <time>2017-09-18T12:03:03Z</time>
      </trkpt>
      <trkpt lat="44.17066" lon="5.08717">
        <ele>349.58</ele>
        <time>2017-09-18T12:03:19Z</time>
      </trkpt>
      <trkpt lat="44.17045" lon="5.08708">
        <ele>347.65</ele>
        <time>2017-09-18T12:03:39Z</time>
      </trkpt>
      <trkpt lat="44.17026" lon="5.08699">
        <ele>346.69</ele>
        <time>2017-09-18T12:03:58Z</time>
      </trkpt>
      <trkpt lat="44.17007" lon="5.08695">
        <ele>344.77</ele>
        <time>2017-09-18T12:04:18Z</time>
      </trkpt>
      <trkpt lat="44.16993" lon="5.08695">
        <ele>342.85</ele>
        <time>2017-09-18T12:04:34Z</time>
      </trkpt>
      <trkpt lat="44.1698" lon="5.08693">
        <ele>341.89</ele>
        <time>2017-09-18T12:04:54Z</time>
      </trkpt>
      <trkpt lat="44.16981" lon="5.08695">
        <ele>342.37</ele>
        <time>2017-09-18T12:05:11Z</time>
      </trkpt>
      <trkpt lat="44.1698" lon="5.08695">
        <ele>342.37</ele>
        <time>2017-09-18T12:05:28Z</time>
      </trkpt>
      <trkpt lat="44.16968" lon="5.08698">
        <ele>340.44</ele>
        <time>2017-09-18T12:05:44Z</time>
      </trkpt>
      <trkpt lat="44.16962" lon="5.08708">
        <ele>339</ele>
        <time>2017-09-18T12:05:59Z</time>
      </trkpt>
      <trkpt lat="44.16954" lon="5.08726">
        <ele>337.08</ele>
        <time>2017-09-18T12:06:17Z</time>
      </trkpt>
      <trkpt lat="44.16953" lon="5.08726">
        <ele>337.08</ele>
        <time>2017-09-18T12:06:18Z</time>
      </trkpt>
      <trkpt lat="44.16947" lon="5.08727">
        <ele>336.12</ele>
        <time>2017-09-18T12:06:24Z</time>
      </trkpt>
      <trkpt lat="44.16935" lon="5.08711">
        <ele>333.71</ele>
        <time>2017-09-18T12:06:43Z</time>
      </trkpt>
      <trkpt lat="44.16936" lon="5.08699">
        <ele>332.27</ele>
        <time>2017-09-18T12:06:53Z</time>
      </trkpt>
      <trkpt lat="44.16934" lon="5.08676">
        <ele>329.87</ele>
        <time>2017-09-18T12:07:13Z</time>
      </trkpt>
      <trkpt lat="44.1692" lon="5.08679">
        <ele>327.47</ele>
        <time>2017-09-18T12:07:31Z</time>
      </trkpt>
      <trkpt lat="44.16917" lon="5.0868">
        <ele>327.47</ele>
        <time>2017-09-18T12:07:34Z</time>
      </trkpt>
      <trkpt lat="44.16907" lon="5.08696">
        <ele>325.06</ele>
        <time>2017-09-18T12:07:52Z</time>
      </trkpt>
      <trkpt lat="44.16897" lon="5.08714">
        <ele>322.18</ele>
        <time>2017-09-18T12:08:11Z</time>
      </trkpt>
      <trkpt lat="44.16884" lon="5.08722">
        <ele>320.26</ele>
        <time>2017-09-18T12:08:29Z</time>
      </trkpt>
      <trkpt lat="44.16868" lon="5.08711">
        <ele>318.33</ele>
        <time>2017-09-18T12:08:49Z</time>
      </trkpt>
      <trkpt lat="44.16851" lon="5.08706">
        <ele>316.89</ele>
        <time>2017-09-18T12:09:08Z</time>
      </trkpt>
      <trkpt lat="44.16834" lon="5.08709">
        <ele>315.93</ele>
        <time>2017-09-18T12:09:25Z</time>
      </trkpt>
      <trkpt lat="44.1682" lon="5.08719">
        <ele>313.53</ele>
        <time>2017-09-18T12:09:43Z</time>
      </trkpt>
      <trkpt lat="44.16807" lon="5.08715">
        <ele>311.6</ele>
        <time>2017-09-18T12:09:59Z</time>
      </trkpt>
      <trkpt lat="44.16793" lon="5.08705">
        <ele>308.72</ele>
        <time>2017-09-18T12:10:18Z</time>
      </trkpt>
      <trkpt lat="44.16778" lon="5.08704">
        <ele>306.32</ele>
        <time>2017-09-18T12:10:37Z</time>
      </trkpt>
      <trkpt lat="44.16762" lon="5.08708">
        <ele>303.43</ele>
        <time>2017-09-18T12:10:55Z</time>
      </trkpt>
      <trkpt lat="44.16754" lon="5.08719">
        <ele>301.51</ele>
        <time>2017-09-18T12:11:14Z</time>
      </trkpt>
      <trkpt lat="44.16755" lon="5.08722">
        <ele>300.55</ele>
        <time>2017-09-18T12:11:29Z</time>
      </trkpt>
      <trkpt lat="44.16756" lon="5.08722">
        <ele>300.55</ele>
        <time>2017-09-18T12:11:53Z</time>
      </trkpt>
      <trkpt lat="44.16756" lon="5.08723">
        <ele>301.51</ele>
        <time>2017-09-18T12:12:01Z</time>
      </trkpt>
      <trkpt lat="44.16756" lon="5.08721">
        <ele>301.99</ele>
        <time>2017-09-18T12:12:29Z</time>
      </trkpt>
      <trkpt lat="44.16756" lon="5.08721">
        <ele>301.99</ele>
        <time>2017-09-18T12:12:38Z</time>
      </trkpt>
      <trkpt lat="44.16755" lon="5.08726">
        <ele>300.55</ele>
        <time>2017-09-18T12:12:50Z</time>
      </trkpt>
      <trkpt lat="44.16756" lon="5.08733">
        <ele>300.07</ele>
        <time>2017-09-18T12:13:05Z</time>
      </trkpt>
      <trkpt lat="44.16761" lon="5.08746">
        <ele>297.67</ele>
        <time>2017-09-18T12:13:23Z</time>
      </trkpt>
      <trkpt lat="44.16765" lon="5.08753">
        <ele>295.74</ele>
        <time>2017-09-18T12:13:39Z</time>
      </trkpt>
      <trkpt lat="44.1677" lon="5.08765">
        <ele>293.82</ele>
        <time>2017-09-18T12:13:54Z</time>
      </trkpt>
      <trkpt lat="44.1677" lon="5.0877">
        <ele>293.82</ele>
        <time>2017-09-18T12:13:58Z</time>
      </trkpt>
      <trkpt lat="44.16774" lon="5.08779">
        <ele>297.18</ele>
        <time>2017-09-18T12:14:06Z</time>
      </trkpt>
      <trkpt lat="44.16774" lon="5.0878">
        <ele>293.82</ele>
        <time>2017-09-18T12:14:07Z</time>
      </trkpt>
      <trkpt lat="44.16776" lon="5.08783">
        <ele>293.82</ele>
        <time>2017-09-18T12:14:19Z</time>
      </trkpt>
      <trkpt lat="44.16771" lon="5.08799">
        <ele>293.82</ele>
        <time>2017-09-18T12:14:34Z</time>
      </trkpt>
      <trkpt lat="44.16752" lon="5.088">
        <ele>295.26</ele>
        <time>2017-09-18T12:14:53Z</time>
      </trkpt>
      <trkpt lat="44.16734" lon="5.08799">
        <ele>296.22</ele>
        <time>2017-09-18T12:15:09Z</time>
      </trkpt>
      <trkpt lat="44.16713" lon="5.08797">
        <ele>296.22</ele>
        <time>2017-09-18T12:15:28Z</time>
      </trkpt>
      <trkpt lat="44.16697" lon="5.08795">
        <ele>296.7</ele>
        <time>2017-09-18T12:15:42Z</time>
      </trkpt>
      <trkpt lat="44.16677" lon="5.08791">
        <ele>297.67</ele>
        <time>2017-09-18T12:16:01Z</time>
      </trkpt>
      <trkpt lat="44.16656" lon="5.08792">
        <ele>298.15</ele>
        <time>2017-09-18T12:16:21Z</time>
      </trkpt>
      <trkpt lat="44.16647" lon="5.08794">
        <ele>296.7</ele>
        <time>2017-09-18T12:16:29Z</time>
      </trkpt>
      <trkpt lat="44.16628" lon="5.08793">
        <ele>295.74</ele>
        <time>2017-09-18T12:16:46Z</time>
      </trkpt>
      <trkpt lat="44.16612" lon="5.08792">
        <ele>294.78</ele>
        <time>2017-09-18T12:17:02Z</time>
      </trkpt>
      <trkpt lat="44.16592" lon="5.0879">
        <ele>293.34</ele>
        <time>2017-09-18T12:17:21Z</time>
      </trkpt>
      <trkpt lat="44.16571" lon="5.0879">
        <ele>291.9</ele>
        <time>2017-09-18T12:17:40Z</time>
      </trkpt>
      <trkpt lat="44.16548" lon="5.08794">
        <ele>290.94</ele>
        <time>2017-09-18T12:18:01Z</time>
      </trkpt>
      <trkpt lat="44.16524" lon="5.08799">
        <ele>289.97</ele>
        <time>2017-09-18T12:18:24Z</time>
      </trkpt>
      <trkpt lat="44.16508" lon="5.08808">
        <ele>289.97</ele>
        <time>2017-09-18T12:18:40Z</time>
      </trkpt>
      <trkpt lat="44.1649" lon="5.08821">
        <ele>289.97</ele>
        <time>2017-09-18T12:18:58Z</time>
      </trkpt>
      <trkpt lat="44.1647" lon="5.08832">
        <ele>289.97</ele>
        <time>2017-09-18T12:19:18Z</time>
      </trkpt>
      <trkpt lat="44.16455" lon="5.08841">
        <ele>291.9</ele>
        <time>2017-09-18T12:19:36Z</time>
      </trkpt>
      <trkpt lat="44.16446" lon="5.08848">
        <ele>292.38</ele>
        <time>2017-09-18T12:19:45Z</time>
      </trkpt>
      <trkpt lat="44.16434" lon="5.08862">
        <ele>289.97</ele>
        <time>2017-09-18T12:20:00Z</time>
      </trkpt>
      <trkpt lat="44.16433" lon="5.08862">
        <ele>295.26</ele>
        <time>2017-09-18T12:20:01Z</time>
      </trkpt>
      <trkpt lat="44.16432" lon="5.08863">
        <ele>292.38</ele>
        <time>2017-09-18T12:20:02Z</time>
      </trkpt>
      <trkpt lat="44.16423" lon="5.08868">
        <ele>291.9</ele>
        <time>2017-09-18T12:20:11Z</time>
      </trkpt>
      <trkpt lat="44.16407" lon="5.08886">
        <ele>291.42</ele>
        <time>2017-09-18T12:20:30Z</time>
      </trkpt>
      <trkpt lat="44.16388" lon="5.08907">
        <ele>290.94</ele>
        <time>2017-09-18T12:20:53Z</time>
      </trkpt>
      <trkpt lat="44.16369" lon="5.08929">
        <ele>290.46</ele>
        <time>2017-09-18T12:21:15Z</time>
      </trkpt>
      <trkpt lat="44.16351" lon="5.08951">
        <ele>290.46</ele>
        <time>2017-09-18T12:21:37Z</time>
      </trkpt>
      <trkpt lat="44.16341" lon="5.08961">
        <ele>290.46</ele>
        <time>2017-09-18T12:21:53Z</time>
      </trkpt>
      <trkpt lat="44.16321" lon="5.08973">
        <ele>290.46</ele>
        <time>2017-09-18T12:22:15Z</time>
      </trkpt>
      <trkpt lat="44.16299" lon="5.08973">
        <ele>290.46</ele>
        <time>2017-09-18T12:22:37Z</time>
      </trkpt>
      <trkpt lat="44.16274" lon="5.08974">
        <ele>289.97</ele>
        <time>2017-09-18T12:23:00Z</time>
      </trkpt>
      <trkpt lat="44.16256" lon="5.08988">
        <ele>289.97</ele>
        <time>2017-09-18T12:23:18Z</time>
      </trkpt>
      <trkpt lat="44.1624" lon="5.09006">
        <ele>290.94</ele>
        <time>2017-09-18T12:23:36Z</time>
      </trkpt>
      <trkpt lat="44.16224" lon="5.09024">
        <ele>291.42</ele>
        <time>2017-09-18T12:23:56Z</time>
      </trkpt>
      <trkpt lat="44.16221" lon="5.09031">
        <ele>291.42</ele>
        <time>2017-09-18T12:24:08Z</time>
      </trkpt>
      <trkpt lat="44.16207" lon="5.09056">
        <ele>291.42</ele>
        <time>2017-09-18T12:24:28Z</time>
      </trkpt>
      <trkpt lat="44.16196" lon="5.09075">
        <ele>291.9</ele>
        <time>2017-09-18T12:24:45Z</time>
      </trkpt>
      <trkpt lat="44.16177" lon="5.091">
        <ele>292.38</ele>
        <time>2017-09-18T12:25:07Z</time>
      </trkpt>
      <trkpt lat="44.1616" lon="5.09138">
        <ele>293.34</ele>
        <time>2017-09-18T12:25:34Z</time>
      </trkpt>
      <trkpt lat="44.16159" lon="5.09172">
        <ele>293.82</ele>
        <time>2017-09-18T12:25:58Z</time>
      </trkpt>
      <trkpt lat="44.16157" lon="5.09183">
        <ele>293.82</ele>
        <time>2017-09-18T12:26:15Z</time>
      </trkpt>
      <trkpt lat="44.16157" lon="5.09181">
        <ele>294.3</ele>
        <time>2017-09-18T12:26:34Z</time>
      </trkpt>
      <trkpt lat="44.16158" lon="5.09179">
        <ele>292.86</ele>
        <time>2017-09-18T12:26:52Z</time>
      </trkpt>
      <trkpt lat="44.16159" lon="5.09179">
        <ele>292.86</ele>
        <time>2017-09-18T12:27:07Z</time>
      </trkpt>
      <trkpt lat="44.16157" lon="5.0918">
        <ele>293.82</ele>
        <time>2017-09-18T12:27:25Z</time>
      </trkpt>
      <trkpt lat="44.16153" lon="5.09179">
        <ele>294.3</ele>
        <time>2017-09-18T12:27:41Z</time>
      </trkpt>
      <trkpt lat="44.16154" lon="5.09179">
        <ele>294.3</ele>
        <time>2017-09-18T12:28:02Z</time>
      </trkpt>
      <trkpt lat="44.16158" lon="5.09181">
        <ele>294.78</ele>
        <time>2017-09-18T12:28:19Z</time>
      </trkpt>
      <trkpt lat="44.16159" lon="5.0919">
        <ele>293.82</ele>
        <time>2017-09-18T12:28:32Z</time>
      </trkpt>
      <trkpt lat="44.16158" lon="5.09194">
        <ele>293.82</ele>
        <time>2017-09-18T12:28:35Z</time>
      </trkpt>
      <trkpt lat="44.16157" lon="5.09207">
        <ele>294.78</ele>
        <time>2017-09-18T12:28:47Z</time>
      </trkpt>
      <trkpt lat="44.16151" lon="5.09232">
        <ele>294.78</ele>
        <time>2017-09-18T12:29:05Z</time>
      </trkpt>
      <trkpt lat="44.16147" lon="5.09263">
        <ele>294.78</ele>
        <time>2017-09-18T12:29:27Z</time>
      </trkpt>
      <trkpt lat="44.16149" lon="5.09289">
        <ele>295.74</ele>
        <time>2017-09-18T12:29:47Z</time>
      </trkpt>
      <trkpt lat="44.1615" lon="5.0929">
        <ele>295.74</ele>
        <time>2017-09-18T12:30:13Z</time>
      </trkpt>
      <trkpt lat="44.16144" lon="5.09289">
        <ele>295.74</ele>
        <time>2017-09-18T12:30:32Z</time>
      </trkpt>
      <trkpt lat="44.16146" lon="5.09289">
        <ele>295.74</ele>
        <time>2017-09-18T12:30:44Z</time>
      </trkpt>
      <trkpt lat="44.16146" lon="5.09289">
        <ele>295.74</ele>
        <time>2017-09-18T12:31:09Z</time>
      </trkpt>
      <trkpt lat="44.16146" lon="5.09288">
        <ele>294.78</ele>
        <time>2017-09-18T12:31:30Z</time>
      </trkpt>
      <trkpt lat="44.16147" lon="5.09288">
        <ele>295.74</ele>
        <time>2017-09-18T12:31:32Z</time>
      </trkpt>
      <trkpt lat="44.16142" lon="5.09293">
        <ele>295.74</ele>
        <time>2017-09-18T12:31:48Z</time>
      </trkpt>
      <trkpt lat="44.16131" lon="5.09304">
        <ele>295.74</ele>
        <time>2017-09-18T12:32:06Z</time>
      </trkpt>
      <trkpt lat="44.16124" lon="5.09324">
        <ele>295.74</ele>
        <time>2017-09-18T12:32:24Z</time>
      </trkpt>
      <trkpt lat="44.16117" lon="5.09333">
        <ele>295.26</ele>
        <time>2017-09-18T12:32:33Z</time>
      </trkpt>
      <trkpt lat="44.16112" lon="5.09319">
        <ele>295.26</ele>
        <time>2017-09-18T12:32:49Z</time>
      </trkpt>
      <trkpt lat="44.16114" lon="5.09294">
        <ele>297.18</ele>
        <time>2017-09-18T12:33:06Z</time>
      </trkpt>
      <trkpt lat="44.16115" lon="5.09287">
        <ele>297.18</ele>
        <time>2017-09-18T12:33:10Z</time>
      </trkpt>
      <trkpt lat="44.1612" lon="5.09266">
        <ele>297.18</ele>
        <time>2017-09-18T12:33:24Z</time>
      </trkpt>
      <trkpt lat="44.1612" lon="5.09249">
        <ele>297.67</ele>
        <time>2017-09-18T12:33:36Z</time>
      </trkpt>
      <trkpt lat="44.16107" lon="5.09225">
        <ele>298.15</ele>
        <time>2017-09-18T12:33:57Z</time>
      </trkpt>
      <trkpt lat="44.16098" lon="5.09223">
        <ele>298.15</ele>
        <time>2017-09-18T12:34:07Z</time>
      </trkpt>
      <trkpt lat="44.16094" lon="5.09224">
        <ele>298.63</ele>
        <time>2017-09-18T12:34:21Z</time>
      </trkpt>
      <trkpt lat="44.16095" lon="5.09225">
        <ele>300.07</ele>
        <time>2017-09-18T12:34:46Z</time>
      </trkpt>
      <trkpt lat="44.16101" lon="5.09232">
        <ele>298.63</ele>
        <time>2017-09-18T12:35:02Z</time>
      </trkpt>
      <trkpt lat="44.16107" lon="5.09244">
        <ele>300.55</ele>
        <time>2017-09-18T12:35:17Z</time>
      </trkpt>
      <trkpt lat="44.16105" lon="5.09262">
        <ele>302.47</ele>
        <time>2017-09-18T12:35:34Z</time>
      </trkpt>
      <trkpt lat="44.16105" lon="5.09269">
        <ele>303.43</ele>
        <time>2017-09-18T12:35:40Z</time>
      </trkpt>
      <trkpt lat="44.16106" lon="5.09271">
        <ele>305.36</ele>
        <time>2017-09-18T12:35:54Z</time>
      </trkpt>
      <trkpt lat="44.16098" lon="5.09284">
        <ele>304.39</ele>
        <time>2017-09-18T12:36:10Z</time>
      </trkpt>
      <trkpt lat="44.16085" lon="5.09294">
        <ele>306.8</ele>
        <time>2017-09-18T12:36:28Z</time>
      </trkpt>
      <trkpt lat="44.16074" lon="5.09291">
        <ele>308.72</ele>
        <time>2017-09-18T12:36:45Z</time>
      </trkpt>
      <trkpt lat="44.16069" lon="5.09293">
        <ele>310.16</ele>
        <time>2017-09-18T12:36:51Z</time>
      </trkpt>
      <trkpt lat="44.1606" lon="5.09297">
        <ele>310.16</ele>
        <time>2017-09-18T12:37:05Z</time>
      </trkpt>
      <trkpt lat="44.16054" lon="5.09299">
        <ele>311.12</ele>
        <time>2017-09-18T12:37:11Z</time>
      </trkpt>
      <trkpt lat="44.16041" lon="5.09304">
        <ele>312.57</ele>
        <time>2017-09-18T12:37:27Z</time>
      </trkpt>
      <trkpt lat="44.16032" lon="5.09309">
        <ele>314.01</ele>
        <time>2017-09-18T12:37:41Z</time>
      </trkpt>
      <trkpt lat="44.16022" lon="5.09321">
        <ele>315.93</ele>
        <time>2017-09-18T12:37:57Z</time>
      </trkpt>
      <trkpt lat="44.16014" lon="5.09335">
        <ele>317.85</ele>
        <time>2017-09-18T12:38:13Z</time>
      </trkpt>
      <trkpt lat="44.16002" lon="5.09347">
        <ele>318.81</ele>
        <time>2017-09-18T12:38:29Z</time>
      </trkpt>
      <trkpt lat="44.16002" lon="5.09348">
        <ele>318.81</ele>
        <time>2017-09-18T12:38:30Z</time>
      </trkpt>
      <trkpt lat="44.15989" lon="5.09365">
        <ele>319.78</ele>
        <time>2017-09-18T12:38:50Z</time>
      </trkpt>
      <trkpt lat="44.15976" lon="5.09377">
        <ele>321.22</ele>
        <time>2017-09-18T12:39:07Z</time>
      </trkpt>
      <trkpt lat="44.15961" lon="5.0938">
        <ele>323.14</ele>
        <time>2017-09-18T12:39:26Z</time>
      </trkpt>
      <trkpt lat="44.15946" lon="5.09384">
        <ele>323.62</ele>
        <time>2017-09-18T12:39:44Z</time>
      </trkpt>
      <trkpt lat="44.15935" lon="5.09389">
        <ele>323.62</ele>
        <time>2017-09-18T12:39:55Z</time>
      </trkpt>
      <trkpt lat="44.15916" lon="5.09398">
        <ele>324.1</ele>
        <time>2017-09-18T12:40:14Z</time>
      </trkpt>
      <trkpt lat="44.15901" lon="5.09407">
        <ele>325.54</ele>
        <time>2017-09-18T12:40:32Z</time>
      </trkpt>
      <trkpt lat="44.15891" lon="5.09415">
        <ele>326.5</ele>
        <time>2017-09-18T12:40:48Z</time>
      </trkpt>
      <trkpt lat="44.15886" lon="5.09427">
        <ele>326.99</ele>
        <time>2017-09-18T12:41:05Z</time>
      </trkpt>
      <trkpt lat="44.1588" lon="5.09448">
        <ele>328.43</ele>
        <time>2017-09-18T12:41:23Z</time>
      </trkpt>
      <trkpt lat="44.15877" lon="5.09467">
        <ele>330.35</ele>
        <time>2017-09-18T12:41:41Z</time>
      </trkpt>
      <trkpt lat="44.15877" lon="5.09475">
        <ele>330.83</ele>
        <time>2017-09-18T12:41:47Z</time>
      </trkpt>
      <trkpt lat="44.15876" lon="5.09477">
        <ele>330.83</ele>
        <time>2017-09-18T12:41:48Z</time>
      </trkpt>
      <trkpt lat="44.15875" lon="5.09495">
        <ele>330.83</ele>
        <time>2017-09-18T12:42:01Z</time>
      </trkpt>
      <trkpt lat="44.15873" lon="5.09529">
        <ele>329.87</ele>
        <time>2017-09-18T12:42:23Z</time>
      </trkpt>
      <trkpt lat="44.15872" lon="5.09558">
        <ele>329.39</ele>
        <time>2017-09-18T12:42:43Z</time>
      </trkpt>
      <trkpt lat="44.15866" lon="5.09583">
        <ele>329.39</ele>
        <time>2017-09-18T12:43:02Z</time>
      </trkpt>
      <trkpt lat="44.15858" lon="5.09599">
        <ele>329.39</ele>
        <time>2017-09-18T12:43:20Z</time>
      </trkpt>
      <trkpt lat="44.15857" lon="5.09596">
        <ele>329.39</ele>
        <time>2017-09-18T12:43:35Z</time>
      </trkpt>
      <trkpt lat="44.15857" lon="5.09596">
        <ele>329.39</ele>
        <time>2017-09-18T12:43:36Z</time>
      </trkpt>
      <trkpt lat="44.15857" lon="5.09596">
        <ele>332.75</ele>
        <time>2017-09-18T12:43:38Z</time>
      </trkpt>
      <trkpt lat="44.15855" lon="5.096">
        <ele>329.87</ele>
        <time>2017-09-18T12:44:00Z</time>
      </trkpt>
      <trkpt lat="44.15851" lon="5.0961">
        <ele>329.87</ele>
        <time>2017-09-18T12:44:09Z</time>
      </trkpt>
      <trkpt lat="44.15839" lon="5.09637">
        <ele>331.31</ele>
        <time>2017-09-18T12:44:31Z</time>
      </trkpt>
      <trkpt lat="44.1583" lon="5.09655">
        <ele>333.23</ele>
        <time>2017-09-18T12:44:47Z</time>
      </trkpt>
      <trkpt lat="44.15821" lon="5.09672">
        <ele>333.71</ele>
        <time>2017-09-18T12:45:03Z</time>
      </trkpt>
      <trkpt lat="44.15809" lon="5.09698">
        <ele>334.68</ele>
        <time>2017-09-18T12:45:25Z</time>
      </trkpt>
      <trkpt lat="44.15803" lon="5.09711">
        <ele>336.12</ele>
        <time>2017-09-18T12:45:41Z</time>
      </trkpt>
      <trkpt lat="44.15796" lon="5.09722">
        <ele>336.12</ele>
        <time>2017-09-18T12:46:00Z</time>
      </trkpt>
      <trkpt lat="44.15784" lon="5.09738">
        <ele>337.08</ele>
        <time>2017-09-18T12:46:17Z</time>
      </trkpt>
      <trkpt lat="44.15766" lon="5.09763">
        <ele>338.52</ele>
        <time>2017-09-18T12:46:42Z</time>
      </trkpt>
      <trkpt lat="44.15753" lon="5.09787">
        <ele>339</ele>
        <time>2017-09-18T12:47:02Z</time>
      </trkpt>
      <trkpt lat="44.15739" lon="5.09808">
        <ele>339.48</ele>
        <time>2017-09-18T12:47:23Z</time>
      </trkpt>
      <trkpt lat="44.15727" lon="5.09831">
        <ele>341.41</ele>
        <time>2017-09-18T12:47:44Z</time>
      </trkpt>
      <trkpt lat="44.15719" lon="5.09847">
        <ele>341.89</ele>
        <time>2017-09-18T12:48:02Z</time>
      </trkpt>
      <trkpt lat="44.15707" lon="5.09865">
        <ele>342.85</ele>
        <time>2017-09-18T12:48:18Z</time>
      </trkpt>
      <trkpt lat="44.15698" lon="5.09872">
        <ele>343.81</ele>
        <time>2017-09-18T12:48:31Z</time>
      </trkpt>
      <trkpt lat="44.15685" lon="5.09892">
        <ele>345.25</ele>
        <time>2017-09-18T12:48:51Z</time>
      </trkpt>
      <trkpt lat="44.1568" lon="5.09896">
        <ele>345.73</ele>
        <time>2017-09-18T12:48:56Z</time>
      </trkpt>
      <trkpt lat="44.15669" lon="5.0991">
        <ele>347.65</ele>
        <time>2017-09-18T12:49:14Z</time>
      </trkpt>
      <trkpt lat="44.15657" lon="5.09928">
        <ele>350.06</ele>
        <time>2017-09-18T12:49:34Z</time>
      </trkpt>
      <trkpt lat="44.15647" lon="5.09942">
        <ele>352.46</ele>
        <time>2017-09-18T12:49:52Z</time>
      </trkpt>
      <trkpt lat="44.15635" lon="5.09953">
        <ele>355.34</ele>
        <time>2017-09-18T12:50:10Z</time>
      </trkpt>
      <trkpt lat="44.15626" lon="5.0996">
        <ele>357.27</ele>
        <time>2017-09-18T12:50:27Z</time>
      </trkpt>
      <trkpt lat="44.15616" lon="5.09969">
        <ele>358.71</ele>
        <time>2017-09-18T12:50:42Z</time>
      </trkpt>
      <trkpt lat="44.15606" lon="5.09979">
        <ele>359.67</ele>
        <time>2017-09-18T12:50:58Z</time>
      </trkpt>
      <trkpt lat="44.15591" lon="5.0998">
        <ele>359.67</ele>
        <time>2017-09-18T12:51:15Z</time>
      </trkpt>
      <trkpt lat="44.15573" lon="5.09981">
        <ele>360.63</ele>
        <time>2017-09-18T12:51:35Z</time>
      </trkpt>
      <trkpt lat="44.15562" lon="5.09982">
        <ele>360.63</ele>
        <time>2017-09-18T12:51:49Z</time>
      </trkpt>
      <trkpt lat="44.15546" lon="5.09972">
        <ele>361.59</ele>
        <time>2017-09-18T12:52:07Z</time>
      </trkpt>
      <trkpt lat="44.15535" lon="5.09958">
        <ele>362.55</ele>
        <time>2017-09-18T12:52:24Z</time>
      </trkpt>
      <trkpt lat="44.15534" lon="5.09957">
        <ele>362.55</ele>
        <time>2017-09-18T12:52:25Z</time>
      </trkpt>
      <trkpt lat="44.15523" lon="5.09933">
        <ele>364</ele>
        <time>2017-09-18T12:52:45Z</time>
      </trkpt>
      <trkpt lat="44.15512" lon="5.09911">
        <ele>365.92</ele>
        <time>2017-09-18T12:53:06Z</time>
      </trkpt>
      <trkpt lat="44.15502" lon="5.09896">
        <ele>366.88</ele>
        <time>2017-09-18T12:53:23Z</time>
      </trkpt>
      <trkpt lat="44.15489" lon="5.09883">
        <ele>368.32</ele>
        <time>2017-09-18T12:53:40Z</time>
      </trkpt>
      <trkpt lat="44.15469" lon="5.09876">
        <ele>369.76</ele>
        <time>2017-09-18T12:53:59Z</time>
      </trkpt>
      <trkpt lat="44.15454" lon="5.09887">
        <ele>370.24</ele>
        <time>2017-09-18T12:54:17Z</time>
      </trkpt>
      <trkpt lat="44.15453" lon="5.09891">
        <ele>370.24</ele>
        <time>2017-09-18T12:54:20Z</time>
      </trkpt>
      <trkpt lat="44.1544" lon="5.09902">
        <ele>371.69</ele>
        <time>2017-09-18T12:54:38Z</time>
      </trkpt>
      <trkpt lat="44.15428" lon="5.09901">
        <ele>371.69</ele>
        <time>2017-09-18T12:54:54Z</time>
      </trkpt>
      <trkpt lat="44.15415" lon="5.09894">
        <ele>372.17</ele>
        <time>2017-09-18T12:55:11Z</time>
      </trkpt>
      <trkpt lat="44.15399" lon="5.09888">
        <ele>373.13</ele>
        <time>2017-09-18T12:55:28Z</time>
      </trkpt>
      <trkpt lat="44.15385" lon="5.09878">
        <ele>374.09</ele>
        <time>2017-09-18T12:55:46Z</time>
      </trkpt>
      <trkpt lat="44.1537" lon="5.09872">
        <ele>375.05</ele>
        <time>2017-09-18T12:56:04Z</time>
      </trkpt>
      <trkpt lat="44.15355" lon="5.09873">
        <ele>375.05</ele>
        <time>2017-09-18T12:56:21Z</time>
      </trkpt>
      <trkpt lat="44.15351" lon="5.09871">
        <ele>375.53</ele>
        <time>2017-09-18T12:56:39Z</time>
      </trkpt>
      <trkpt lat="44.15346" lon="5.09867">
        <ele>376.49</ele>
        <time>2017-09-18T12:56:57Z</time>
      </trkpt>
      <trkpt lat="44.15343" lon="5.09867">
        <ele>376.49</ele>
        <time>2017-09-18T12:57:12Z</time>
      </trkpt>
      <trkpt lat="44.15343" lon="5.09867">
        <ele>376.49</ele>
        <time>2017-09-18T12:57:14Z</time>
      </trkpt>
      <trkpt lat="44.15335" lon="5.09865">
        <ele>376.97</ele>
        <time>2017-09-18T12:57:25Z</time>
      </trkpt>
      <trkpt lat="44.1533" lon="5.09856">
        <ele>375.53</ele>
        <time>2017-09-18T12:57:40Z</time>
      </trkpt>
      <trkpt lat="44.1533" lon="5.09856">
        <ele>376.97</ele>
        <time>2017-09-18T12:57:44Z</time>
      </trkpt>
      <trkpt lat="44.1533" lon="5.09855">
        <ele>376.01</ele>
        <time>2017-09-18T12:57:50Z</time>
      </trkpt>
      <trkpt lat="44.15329" lon="5.09856">
        <ele>376.01</ele>
        <time>2017-09-18T12:58:10Z</time>
      </trkpt>
      <trkpt lat="44.15331" lon="5.09855">
        <ele>376.97</ele>
        <time>2017-09-18T12:58:31Z</time>
      </trkpt>
    </trkseg>
  </trk>
</gpx>